<?xml version="1.0" encoding="UTF-8" standalone="no" ?>
<gpx xmlns="http://www.topografix.com/GPX/1/1" xmlns:xsi="http://www.w3.org/2001/XMLSchema-instance" xsi:schemaLocation="http://www.topografix.com/GPX/1/1 http://www.topografix.com/GPX/1/1/gpx.xsd" version="1.1" creator="VisuGPX - https://www.visugpx.com">
  <metadata>
    <name>randonnée reprise</name>
    <desc><![CDATA[randonnée reprise en huit                          ]]></desc>
  </metadata>
  <trk>
    <name><![CDATA[Tracé actuel: 19 SEPT 2018 12:56]]></name>
    <trkseg>
      <trkpt lat="49.63456" lon="4.98044">
        <ele>188.56</ele>
        <time>2018-09-19T10:56:58Z</time>
      </trkpt>
      <trkpt lat="49.63455" lon="4.98047">
        <ele>188.56</ele>
        <time>2018-09-19T10:57:14Z</time>
      </trkpt>
      <trkpt lat="49.63453" lon="4.98049">
        <ele>188.56</ele>
        <time>2018-09-19T10:57:16Z</time>
      </trkpt>
      <trkpt lat="49.63451" lon="4.98069">
        <ele>188.56</ele>
        <time>2018-09-19T10:57:38Z</time>
      </trkpt>
      <trkpt lat="49.63437" lon="4.98035">
        <ele>183.27</ele>
        <time>2018-09-19T10:57:53Z</time>
      </trkpt>
      <trkpt lat="49.63435" lon="4.98032">
        <ele>182.79</ele>
        <time>2018-09-19T10:57:57Z</time>
      </trkpt>
      <trkpt lat="49.63422" lon="4.98022">
        <ele>181.35</ele>
        <time>2018-09-19T10:58:12Z</time>
      </trkpt>
      <trkpt lat="49.63406" lon="4.98008">
        <ele>180.87</ele>
        <time>2018-09-19T10:58:29Z</time>
      </trkpt>
      <trkpt lat="49.63397" lon="4.97989">
        <ele>179.42</ele>
        <time>2018-09-19T10:58:46Z</time>
      </trkpt>
      <trkpt lat="49.63387" lon="4.97967">
        <ele>180.87</ele>
        <time>2018-09-19T10:59:03Z</time>
      </trkpt>
      <trkpt lat="49.63384" lon="4.97964">
        <ele>181.35</ele>
        <time>2018-09-19T10:59:06Z</time>
      </trkpt>
      <trkpt lat="49.63385" lon="4.97945">
        <ele>181.35</ele>
        <time>2018-09-19T10:59:22Z</time>
      </trkpt>
      <trkpt lat="49.63399" lon="4.97925">
        <ele>182.79</ele>
        <time>2018-09-19T10:59:38Z</time>
      </trkpt>
      <trkpt lat="49.63411" lon="4.97917">
        <ele>182.31</ele>
        <time>2018-09-19T10:59:52Z</time>
      </trkpt>
      <trkpt lat="49.63428" lon="4.97908">
        <ele>180.38</ele>
        <time>2018-09-19T11:00:10Z</time>
      </trkpt>
      <trkpt lat="49.63448" lon="4.97897">
        <ele>178.46</ele>
        <time>2018-09-19T11:00:29Z</time>
      </trkpt>
      <trkpt lat="49.63463" lon="4.97883">
        <ele>177.5</ele>
        <time>2018-09-19T11:00:46Z</time>
      </trkpt>
      <trkpt lat="49.63477" lon="4.97864">
        <ele>177.02</ele>
        <time>2018-09-19T11:01:03Z</time>
      </trkpt>
      <trkpt lat="49.63494" lon="4.9785">
        <ele>176.06</ele>
        <time>2018-09-19T11:01:20Z</time>
      </trkpt>
      <trkpt lat="49.63507" lon="4.97831">
        <ele>172.21</ele>
        <time>2018-09-19T11:01:37Z</time>
      </trkpt>
      <trkpt lat="49.63518" lon="4.97812">
        <ele>170.77</ele>
        <time>2018-09-19T11:01:55Z</time>
      </trkpt>
      <trkpt lat="49.63533" lon="4.97791">
        <ele>165.96</ele>
        <time>2018-09-19T11:02:16Z</time>
      </trkpt>
      <trkpt lat="49.63542" lon="4.97767">
        <ele>166.93</ele>
        <time>2018-09-19T11:02:32Z</time>
      </trkpt>
      <trkpt lat="49.63556" lon="4.97735">
        <ele>165</ele>
        <time>2018-09-19T11:02:53Z</time>
      </trkpt>
      <trkpt lat="49.63564" lon="4.9771">
        <ele>166.93</ele>
        <time>2018-09-19T11:03:10Z</time>
      </trkpt>
      <trkpt lat="49.63573" lon="4.977">
        <ele>167.89</ele>
        <time>2018-09-19T11:03:20Z</time>
      </trkpt>
      <trkpt lat="49.63579" lon="4.97695">
        <ele>168.37</ele>
        <time>2018-09-19T11:03:26Z</time>
      </trkpt>
      <trkpt lat="49.63585" lon="4.97684">
        <ele>168.85</ele>
        <time>2018-09-19T11:03:36Z</time>
      </trkpt>
      <trkpt lat="49.63599" lon="4.97673">
        <ele>165.96</ele>
        <time>2018-09-19T11:03:53Z</time>
      </trkpt>
      <trkpt lat="49.6361" lon="4.97668">
        <ele>165.48</ele>
        <time>2018-09-19T11:04:04Z</time>
      </trkpt>
      <trkpt lat="49.63618" lon="4.97672">
        <ele>165.96</ele>
        <time>2018-09-19T11:04:13Z</time>
      </trkpt>
      <trkpt lat="49.63639" lon="4.9769">
        <ele>165</ele>
        <time>2018-09-19T11:04:35Z</time>
      </trkpt>
      <trkpt lat="49.63657" lon="4.97709">
        <ele>166.45</ele>
        <time>2018-09-19T11:04:57Z</time>
      </trkpt>
      <trkpt lat="49.63674" lon="4.97722">
        <ele>168.37</ele>
        <time>2018-09-19T11:05:16Z</time>
      </trkpt>
      <trkpt lat="49.63691" lon="4.97734">
        <ele>169.33</ele>
        <time>2018-09-19T11:05:34Z</time>
      </trkpt>
      <trkpt lat="49.63708" lon="4.97747">
        <ele>170.77</ele>
        <time>2018-09-19T11:05:51Z</time>
      </trkpt>
      <trkpt lat="49.63724" lon="4.97762">
        <ele>171.73</ele>
        <time>2018-09-19T11:06:10Z</time>
      </trkpt>
      <trkpt lat="49.63731" lon="4.97771">
        <ele>171.73</ele>
        <time>2018-09-19T11:06:24Z</time>
      </trkpt>
      <trkpt lat="49.63751" lon="4.97786">
        <ele>171.25</ele>
        <time>2018-09-19T11:06:43Z</time>
      </trkpt>
      <trkpt lat="49.63772" lon="4.97797">
        <ele>170.77</ele>
        <time>2018-09-19T11:06:58Z</time>
      </trkpt>
      <trkpt lat="49.63786" lon="4.97813">
        <ele>168.37</ele>
        <time>2018-09-19T11:07:15Z</time>
      </trkpt>
      <trkpt lat="49.63802" lon="4.9783">
        <ele>167.89</ele>
        <time>2018-09-19T11:07:35Z</time>
      </trkpt>
      <trkpt lat="49.63817" lon="4.97849">
        <ele>167.89</ele>
        <time>2018-09-19T11:07:54Z</time>
      </trkpt>
      <trkpt lat="49.6384" lon="4.97864">
        <ele>167.41</ele>
        <time>2018-09-19T11:08:14Z</time>
      </trkpt>
      <trkpt lat="49.6386" lon="4.97892">
        <ele>161.16</ele>
        <time>2018-09-19T11:08:37Z</time>
      </trkpt>
      <trkpt lat="49.63881" lon="4.97911">
        <ele>163.56</ele>
        <time>2018-09-19T11:08:57Z</time>
      </trkpt>
      <trkpt lat="49.63887" lon="4.97917">
        <ele>163.56</ele>
        <time>2018-09-19T11:09:02Z</time>
      </trkpt>
      <trkpt lat="49.63894" lon="4.97925">
        <ele>163.08</ele>
        <time>2018-09-19T11:09:07Z</time>
      </trkpt>
      <trkpt lat="49.63913" lon="4.97938">
        <ele>163.08</ele>
        <time>2018-09-19T11:09:29Z</time>
      </trkpt>
      <trkpt lat="49.63919" lon="4.97945">
        <ele>163.08</ele>
        <time>2018-09-19T11:09:35Z</time>
      </trkpt>
      <trkpt lat="49.63921" lon="4.97947">
        <ele>163.08</ele>
        <time>2018-09-19T11:09:37Z</time>
      </trkpt>
      <trkpt lat="49.63935" lon="4.97957">
        <ele>164.04</ele>
        <time>2018-09-19T11:09:53Z</time>
      </trkpt>
      <trkpt lat="49.63955" lon="4.97977">
        <ele>164.52</ele>
        <time>2018-09-19T11:10:13Z</time>
      </trkpt>
      <trkpt lat="49.63975" lon="4.97993">
        <ele>163.56</ele>
        <time>2018-09-19T11:10:31Z</time>
      </trkpt>
      <trkpt lat="49.63993" lon="4.98007">
        <ele>163.08</ele>
        <time>2018-09-19T11:10:48Z</time>
      </trkpt>
      <trkpt lat="49.63995" lon="4.98009">
        <ele>163.08</ele>
        <time>2018-09-19T11:10:50Z</time>
      </trkpt>
      <trkpt lat="49.64008" lon="4.98024">
        <ele>163.56</ele>
        <time>2018-09-19T11:11:04Z</time>
      </trkpt>
      <trkpt lat="49.64019" lon="4.98036">
        <ele>164.52</ele>
        <time>2018-09-19T11:11:18Z</time>
      </trkpt>
      <trkpt lat="49.64022" lon="4.9804">
        <ele>164.52</ele>
        <time>2018-09-19T11:11:22Z</time>
      </trkpt>
      <trkpt lat="49.64037" lon="4.98055">
        <ele>165</ele>
        <time>2018-09-19T11:11:39Z</time>
      </trkpt>
      <trkpt lat="49.64053" lon="4.98071">
        <ele>165.48</ele>
        <time>2018-09-19T11:11:55Z</time>
      </trkpt>
      <trkpt lat="49.64067" lon="4.98086">
        <ele>164.52</ele>
        <time>2018-09-19T11:12:13Z</time>
      </trkpt>
      <trkpt lat="49.64083" lon="4.98099">
        <ele>163.08</ele>
        <time>2018-09-19T11:12:29Z</time>
      </trkpt>
      <trkpt lat="49.64104" lon="4.98116">
        <ele>160.68</ele>
        <time>2018-09-19T11:12:48Z</time>
      </trkpt>
      <trkpt lat="49.64119" lon="4.98132">
        <ele>161.16</ele>
        <time>2018-09-19T11:13:05Z</time>
      </trkpt>
      <trkpt lat="49.64145" lon="4.98155">
        <ele>162.6</ele>
        <time>2018-09-19T11:13:26Z</time>
      </trkpt>
      <trkpt lat="49.64159" lon="4.98172">
        <ele>163.08</ele>
        <time>2018-09-19T11:13:43Z</time>
      </trkpt>
      <trkpt lat="49.64173" lon="4.98187">
        <ele>165.96</ele>
        <time>2018-09-19T11:13:57Z</time>
      </trkpt>
      <trkpt lat="49.64189" lon="4.98195">
        <ele>165.48</ele>
        <time>2018-09-19T11:14:12Z</time>
      </trkpt>
      <trkpt lat="49.64203" lon="4.98206">
        <ele>162.6</ele>
        <time>2018-09-19T11:14:28Z</time>
      </trkpt>
      <trkpt lat="49.64217" lon="4.9822">
        <ele>162.6</ele>
        <time>2018-09-19T11:14:44Z</time>
      </trkpt>
      <trkpt lat="49.64236" lon="4.98237">
        <ele>164.52</ele>
        <time>2018-09-19T11:15:02Z</time>
      </trkpt>
      <trkpt lat="49.64252" lon="4.98252">
        <ele>165</ele>
        <time>2018-09-19T11:15:19Z</time>
      </trkpt>
      <trkpt lat="49.64266" lon="4.98267">
        <ele>165.48</ele>
        <time>2018-09-19T11:15:35Z</time>
      </trkpt>
      <trkpt lat="49.64277" lon="4.98278">
        <ele>165.48</ele>
        <time>2018-09-19T11:15:47Z</time>
      </trkpt>
      <trkpt lat="49.6428" lon="4.98281">
        <ele>165.48</ele>
        <time>2018-09-19T11:15:50Z</time>
      </trkpt>
      <trkpt lat="49.64296" lon="4.98297">
        <ele>165.48</ele>
        <time>2018-09-19T11:16:07Z</time>
      </trkpt>
      <trkpt lat="49.64312" lon="4.98309">
        <ele>165</ele>
        <time>2018-09-19T11:16:21Z</time>
      </trkpt>
      <trkpt lat="49.64325" lon="4.98321">
        <ele>164.04</ele>
        <time>2018-09-19T11:16:36Z</time>
      </trkpt>
      <trkpt lat="49.64341" lon="4.98335">
        <ele>165</ele>
        <time>2018-09-19T11:16:53Z</time>
      </trkpt>
      <trkpt lat="49.6436" lon="4.98349">
        <ele>165</ele>
        <time>2018-09-19T11:17:10Z</time>
      </trkpt>
      <trkpt lat="49.64365" lon="4.98353">
        <ele>165</ele>
        <time>2018-09-19T11:17:15Z</time>
      </trkpt>
      <trkpt lat="49.64385" lon="4.98366">
        <ele>165.96</ele>
        <time>2018-09-19T11:17:33Z</time>
      </trkpt>
      <trkpt lat="49.64388" lon="4.98369">
        <ele>165.96</ele>
        <time>2018-09-19T11:17:37Z</time>
      </trkpt>
      <trkpt lat="49.64404" lon="4.98378">
        <ele>165.96</ele>
        <time>2018-09-19T11:17:51Z</time>
      </trkpt>
      <trkpt lat="49.64409" lon="4.98384">
        <ele>165.48</ele>
        <time>2018-09-19T11:17:57Z</time>
      </trkpt>
      <trkpt lat="49.64412" lon="4.98386">
        <ele>165.48</ele>
        <time>2018-09-19T11:17:59Z</time>
      </trkpt>
      <trkpt lat="49.6442" lon="4.98391">
        <ele>165</ele>
        <time>2018-09-19T11:18:05Z</time>
      </trkpt>
      <trkpt lat="49.64435" lon="4.98399">
        <ele>165</ele>
        <time>2018-09-19T11:18:21Z</time>
      </trkpt>
      <trkpt lat="49.64452" lon="4.98411">
        <ele>164.52</ele>
        <time>2018-09-19T11:18:38Z</time>
      </trkpt>
      <trkpt lat="49.64465" lon="4.9842">
        <ele>164.52</ele>
        <time>2018-09-19T11:18:53Z</time>
      </trkpt>
      <trkpt lat="49.64482" lon="4.98432">
        <ele>164.04</ele>
        <time>2018-09-19T11:19:09Z</time>
      </trkpt>
      <trkpt lat="49.64499" lon="4.98443">
        <ele>164.04</ele>
        <time>2018-09-19T11:19:26Z</time>
      </trkpt>
      <trkpt lat="49.64517" lon="4.98454">
        <ele>164.04</ele>
        <time>2018-09-19T11:19:42Z</time>
      </trkpt>
      <trkpt lat="49.64529" lon="4.98464">
        <ele>163.56</ele>
        <time>2018-09-19T11:19:58Z</time>
      </trkpt>
      <trkpt lat="49.64549" lon="4.98476">
        <ele>163.08</ele>
        <time>2018-09-19T11:20:17Z</time>
      </trkpt>
      <trkpt lat="49.64571" lon="4.98487">
        <ele>163.08</ele>
        <time>2018-09-19T11:20:35Z</time>
      </trkpt>
      <trkpt lat="49.64594" lon="4.98494">
        <ele>162.6</ele>
        <time>2018-09-19T11:20:53Z</time>
      </trkpt>
      <trkpt lat="49.64616" lon="4.98505">
        <ele>162.6</ele>
        <time>2018-09-19T11:21:13Z</time>
      </trkpt>
      <trkpt lat="49.64637" lon="4.98516">
        <ele>162.12</ele>
        <time>2018-09-19T11:21:31Z</time>
      </trkpt>
      <trkpt lat="49.64657" lon="4.98525">
        <ele>161.64</ele>
        <time>2018-09-19T11:21:47Z</time>
      </trkpt>
      <trkpt lat="49.64673" lon="4.98532">
        <ele>161.16</ele>
        <time>2018-09-19T11:22:01Z</time>
      </trkpt>
      <trkpt lat="49.64689" lon="4.98542">
        <ele>160.2</ele>
        <time>2018-09-19T11:22:15Z</time>
      </trkpt>
      <trkpt lat="49.64707" lon="4.98552">
        <ele>158.27</ele>
        <time>2018-09-19T11:22:32Z</time>
      </trkpt>
      <trkpt lat="49.64724" lon="4.98559">
        <ele>157.31</ele>
        <time>2018-09-19T11:22:47Z</time>
      </trkpt>
      <trkpt lat="49.64731" lon="4.98564">
        <ele>156.83</ele>
        <time>2018-09-19T11:22:53Z</time>
      </trkpt>
      <trkpt lat="49.64747" lon="4.98574">
        <ele>157.31</ele>
        <time>2018-09-19T11:23:08Z</time>
      </trkpt>
      <trkpt lat="49.64749" lon="4.98576">
        <ele>157.31</ele>
        <time>2018-09-19T11:23:10Z</time>
      </trkpt>
      <trkpt lat="49.6477" lon="4.98587">
        <ele>156.35</ele>
        <time>2018-09-19T11:23:29Z</time>
      </trkpt>
      <trkpt lat="49.64787" lon="4.98597">
        <ele>156.83</ele>
        <time>2018-09-19T11:23:45Z</time>
      </trkpt>
      <trkpt lat="49.64802" lon="4.98605">
        <ele>157.79</ele>
        <time>2018-09-19T11:23:59Z</time>
      </trkpt>
      <trkpt lat="49.64812" lon="4.98612">
        <ele>157.79</ele>
        <time>2018-09-19T11:24:09Z</time>
      </trkpt>
      <trkpt lat="49.64815" lon="4.98614">
        <ele>157.79</ele>
        <time>2018-09-19T11:24:12Z</time>
      </trkpt>
      <trkpt lat="49.64833" lon="4.98626">
        <ele>156.35</ele>
        <time>2018-09-19T11:24:29Z</time>
      </trkpt>
      <trkpt lat="49.64854" lon="4.98636">
        <ele>156.35</ele>
        <time>2018-09-19T11:24:47Z</time>
      </trkpt>
      <trkpt lat="49.64873" lon="4.9865">
        <ele>156.35</ele>
        <time>2018-09-19T11:25:06Z</time>
      </trkpt>
      <trkpt lat="49.64886" lon="4.98659">
        <ele>156.35</ele>
        <time>2018-09-19T11:25:19Z</time>
      </trkpt>
      <trkpt lat="49.649" lon="4.98671">
        <ele>155.39</ele>
        <time>2018-09-19T11:25:33Z</time>
      </trkpt>
      <trkpt lat="49.6491" lon="4.98677">
        <ele>154.43</ele>
        <time>2018-09-19T11:25:43Z</time>
      </trkpt>
      <trkpt lat="49.64912" lon="4.98682">
        <ele>154.43</ele>
        <time>2018-09-19T11:25:46Z</time>
      </trkpt>
      <trkpt lat="49.64917" lon="4.98678">
        <ele>154.91</ele>
        <time>2018-09-19T11:25:52Z</time>
      </trkpt>
      <trkpt lat="49.64906" lon="4.98658">
        <ele>155.87</ele>
        <time>2018-09-19T11:26:07Z</time>
      </trkpt>
      <trkpt lat="49.64903" lon="4.9865">
        <ele>155.39</ele>
        <time>2018-09-19T11:26:13Z</time>
      </trkpt>
      <trkpt lat="49.64896" lon="4.98637">
        <ele>155.39</ele>
        <time>2018-09-19T11:26:24Z</time>
      </trkpt>
      <trkpt lat="49.64887" lon="4.98616">
        <ele>156.35</ele>
        <time>2018-09-19T11:26:39Z</time>
      </trkpt>
      <trkpt lat="49.64883" lon="4.98595">
        <ele>157.31</ele>
        <time>2018-09-19T11:26:54Z</time>
      </trkpt>
      <trkpt lat="49.64882" lon="4.98571">
        <ele>159.72</ele>
        <time>2018-09-19T11:27:09Z</time>
      </trkpt>
      <trkpt lat="49.64888" lon="4.98544">
        <ele>162.6</ele>
        <time>2018-09-19T11:27:26Z</time>
      </trkpt>
      <trkpt lat="49.64891" lon="4.98521">
        <ele>166.45</ele>
        <time>2018-09-19T11:27:41Z</time>
      </trkpt>
      <trkpt lat="49.64892" lon="4.98501">
        <ele>167.89</ele>
        <time>2018-09-19T11:27:56Z</time>
      </trkpt>
      <trkpt lat="49.64894" lon="4.98477">
        <ele>171.25</ele>
        <time>2018-09-19T11:28:14Z</time>
      </trkpt>
      <trkpt lat="49.64898" lon="4.98462">
        <ele>174.14</ele>
        <time>2018-09-19T11:28:25Z</time>
      </trkpt>
      <trkpt lat="49.6491" lon="4.98431">
        <ele>177.02</ele>
        <time>2018-09-19T11:28:44Z</time>
      </trkpt>
      <trkpt lat="49.64918" lon="4.98412">
        <ele>178.46</ele>
        <time>2018-09-19T11:28:59Z</time>
      </trkpt>
      <trkpt lat="49.64926" lon="4.98388">
        <ele>180.38</ele>
        <time>2018-09-19T11:29:17Z</time>
      </trkpt>
      <trkpt lat="49.64931" lon="4.98372">
        <ele>181.83</ele>
        <time>2018-09-19T11:29:26Z</time>
      </trkpt>
      <trkpt lat="49.64939" lon="4.98344">
        <ele>181.35</ele>
        <time>2018-09-19T11:29:42Z</time>
      </trkpt>
      <trkpt lat="49.64945" lon="4.98316">
        <ele>177.5</ele>
        <time>2018-09-19T11:29:57Z</time>
      </trkpt>
      <trkpt lat="49.64953" lon="4.9829">
        <ele>176.54</ele>
        <time>2018-09-19T11:30:13Z</time>
      </trkpt>
      <trkpt lat="49.64958" lon="4.98268">
        <ele>177.5</ele>
        <time>2018-09-19T11:30:29Z</time>
      </trkpt>
      <trkpt lat="49.64962" lon="4.98242">
        <ele>178.94</ele>
        <time>2018-09-19T11:30:44Z</time>
      </trkpt>
      <trkpt lat="49.64959" lon="4.98213">
        <ele>179.42</ele>
        <time>2018-09-19T11:30:58Z</time>
      </trkpt>
      <trkpt lat="49.64958" lon="4.98189">
        <ele>181.35</ele>
        <time>2018-09-19T11:31:13Z</time>
      </trkpt>
      <trkpt lat="49.64957" lon="4.98167">
        <ele>182.79</ele>
        <time>2018-09-19T11:31:27Z</time>
      </trkpt>
      <trkpt lat="49.64954" lon="4.98147">
        <ele>183.75</ele>
        <time>2018-09-19T11:31:39Z</time>
      </trkpt>
      <trkpt lat="49.64954" lon="4.98144">
        <ele>184.23</ele>
        <time>2018-09-19T11:31:41Z</time>
      </trkpt>
      <trkpt lat="49.64949" lon="4.98119">
        <ele>183.27</ele>
        <time>2018-09-19T11:31:56Z</time>
      </trkpt>
      <trkpt lat="49.64947" lon="4.98096">
        <ele>183.75</ele>
        <time>2018-09-19T11:32:10Z</time>
      </trkpt>
      <trkpt lat="49.64943" lon="4.98081">
        <ele>185.67</ele>
        <time>2018-09-19T11:32:20Z</time>
      </trkpt>
      <trkpt lat="49.64937" lon="4.98059">
        <ele>186.63</ele>
        <time>2018-09-19T11:32:34Z</time>
      </trkpt>
      <trkpt lat="49.64932" lon="4.9804">
        <ele>187.11</ele>
        <time>2018-09-19T11:32:47Z</time>
      </trkpt>
      <trkpt lat="49.64927" lon="4.98022">
        <ele>188.56</ele>
        <time>2018-09-19T11:32:59Z</time>
      </trkpt>
      <trkpt lat="49.64922" lon="4.98">
        <ele>191.92</ele>
        <time>2018-09-19T11:33:13Z</time>
      </trkpt>
      <trkpt lat="49.64916" lon="4.97978">
        <ele>194.8</ele>
        <time>2018-09-19T11:33:27Z</time>
      </trkpt>
      <trkpt lat="49.6491" lon="4.97959">
        <ele>197.21</ele>
        <time>2018-09-19T11:33:41Z</time>
      </trkpt>
      <trkpt lat="49.64907" lon="4.97938">
        <ele>200.57</ele>
        <time>2018-09-19T11:33:55Z</time>
      </trkpt>
      <trkpt lat="49.64904" lon="4.97918">
        <ele>202.98</ele>
        <time>2018-09-19T11:34:07Z</time>
      </trkpt>
      <trkpt lat="49.64903" lon="4.97892">
        <ele>205.38</ele>
        <time>2018-09-19T11:34:24Z</time>
      </trkpt>
      <trkpt lat="49.64902" lon="4.97866">
        <ele>205.38</ele>
        <time>2018-09-19T11:34:39Z</time>
      </trkpt>
      <trkpt lat="49.64902" lon="4.97836">
        <ele>206.34</ele>
        <time>2018-09-19T11:34:56Z</time>
      </trkpt>
      <trkpt lat="49.64902" lon="4.97808">
        <ele>206.82</ele>
        <time>2018-09-19T11:35:13Z</time>
      </trkpt>
      <trkpt lat="49.649" lon="4.9779">
        <ele>207.3</ele>
        <time>2018-09-19T11:35:23Z</time>
      </trkpt>
      <trkpt lat="49.64899" lon="4.97759">
        <ele>208.26</ele>
        <time>2018-09-19T11:35:41Z</time>
      </trkpt>
      <trkpt lat="49.64902" lon="4.97731">
        <ele>209.22</ele>
        <time>2018-09-19T11:35:58Z</time>
      </trkpt>
      <trkpt lat="49.64909" lon="4.97705">
        <ele>209.7</ele>
        <time>2018-09-19T11:36:14Z</time>
      </trkpt>
      <trkpt lat="49.64913" lon="4.97686">
        <ele>210.19</ele>
        <time>2018-09-19T11:36:27Z</time>
      </trkpt>
      <trkpt lat="49.64921" lon="4.97666">
        <ele>210.67</ele>
        <time>2018-09-19T11:36:41Z</time>
      </trkpt>
      <trkpt lat="49.64929" lon="4.97645">
        <ele>212.59</ele>
        <time>2018-09-19T11:36:57Z</time>
      </trkpt>
      <trkpt lat="49.64937" lon="4.97619">
        <ele>215.47</ele>
        <time>2018-09-19T11:37:15Z</time>
      </trkpt>
      <trkpt lat="49.64945" lon="4.97596">
        <ele>216.91</ele>
        <time>2018-09-19T11:37:30Z</time>
      </trkpt>
      <trkpt lat="49.64948" lon="4.97578">
        <ele>217.88</ele>
        <time>2018-09-19T11:37:45Z</time>
      </trkpt>
      <trkpt lat="49.64948" lon="4.97571">
        <ele>218.84</ele>
        <time>2018-09-19T11:38:04Z</time>
      </trkpt>
      <trkpt lat="49.64948" lon="4.9755">
        <ele>220.76</ele>
        <time>2018-09-19T11:38:17Z</time>
      </trkpt>
      <trkpt lat="49.64945" lon="4.97524">
        <ele>224.12</ele>
        <time>2018-09-19T11:38:32Z</time>
      </trkpt>
      <trkpt lat="49.64939" lon="4.97503">
        <ele>225.57</ele>
        <time>2018-09-19T11:38:45Z</time>
      </trkpt>
      <trkpt lat="49.64931" lon="4.97483">
        <ele>227.97</ele>
        <time>2018-09-19T11:38:59Z</time>
      </trkpt>
      <trkpt lat="49.64922" lon="4.97467">
        <ele>230.37</ele>
        <time>2018-09-19T11:39:13Z</time>
      </trkpt>
      <trkpt lat="49.64911" lon="4.9745">
        <ele>230.85</ele>
        <time>2018-09-19T11:39:27Z</time>
      </trkpt>
      <trkpt lat="49.649" lon="4.9743">
        <ele>230.85</ele>
        <time>2018-09-19T11:39:42Z</time>
      </trkpt>
      <trkpt lat="49.64888" lon="4.97414">
        <ele>229.89</ele>
        <time>2018-09-19T11:39:57Z</time>
      </trkpt>
      <trkpt lat="49.64875" lon="4.97398">
        <ele>230.37</ele>
        <time>2018-09-19T11:40:11Z</time>
      </trkpt>
      <trkpt lat="49.64862" lon="4.97386">
        <ele>231.33</ele>
        <time>2018-09-19T11:40:25Z</time>
      </trkpt>
      <trkpt lat="49.64851" lon="4.97374">
        <ele>232.3</ele>
        <time>2018-09-19T11:40:37Z</time>
      </trkpt>
      <trkpt lat="49.64836" lon="4.97358">
        <ele>232.78</ele>
        <time>2018-09-19T11:40:53Z</time>
      </trkpt>
      <trkpt lat="49.64822" lon="4.97344">
        <ele>233.74</ele>
        <time>2018-09-19T11:41:08Z</time>
      </trkpt>
      <trkpt lat="49.64807" lon="4.9733">
        <ele>232.78</ele>
        <time>2018-09-19T11:41:24Z</time>
      </trkpt>
      <trkpt lat="49.64792" lon="4.97315">
        <ele>233.26</ele>
        <time>2018-09-19T11:41:40Z</time>
      </trkpt>
      <trkpt lat="49.64778" lon="4.97299">
        <ele>233.74</ele>
        <time>2018-09-19T11:41:56Z</time>
      </trkpt>
      <trkpt lat="49.64766" lon="4.97281">
        <ele>234.22</ele>
        <time>2018-09-19T11:42:12Z</time>
      </trkpt>
      <trkpt lat="49.64753" lon="4.97264">
        <ele>235.66</ele>
        <time>2018-09-19T11:42:27Z</time>
      </trkpt>
      <trkpt lat="49.64741" lon="4.97253">
        <ele>237.1</ele>
        <time>2018-09-19T11:42:40Z</time>
      </trkpt>
      <trkpt lat="49.64729" lon="4.97234">
        <ele>239.02</ele>
        <time>2018-09-19T11:42:57Z</time>
      </trkpt>
      <trkpt lat="49.64717" lon="4.97216">
        <ele>241.43</ele>
        <time>2018-09-19T11:43:11Z</time>
      </trkpt>
      <trkpt lat="49.64706" lon="4.97199">
        <ele>241.91</ele>
        <time>2018-09-19T11:43:26Z</time>
      </trkpt>
      <trkpt lat="49.64693" lon="4.97184">
        <ele>242.39</ele>
        <time>2018-09-19T11:43:42Z</time>
      </trkpt>
      <trkpt lat="49.64692" lon="4.97184">
        <ele>241.91</ele>
        <time>2018-09-19T11:43:43Z</time>
      </trkpt>
      <trkpt lat="49.64685" lon="4.97188">
        <ele>240.95</ele>
        <time>2018-09-19T11:43:51Z</time>
      </trkpt>
      <trkpt lat="49.64678" lon="4.97212">
        <ele>238.54</ele>
        <time>2018-09-19T11:44:07Z</time>
      </trkpt>
      <trkpt lat="49.64668" lon="4.97236">
        <ele>235.66</ele>
        <time>2018-09-19T11:44:25Z</time>
      </trkpt>
      <trkpt lat="49.64661" lon="4.97256">
        <ele>233.26</ele>
        <time>2018-09-19T11:44:40Z</time>
      </trkpt>
      <trkpt lat="49.64652" lon="4.97278">
        <ele>230.85</ele>
        <time>2018-09-19T11:44:56Z</time>
      </trkpt>
      <trkpt lat="49.64642" lon="4.97303">
        <ele>228.93</ele>
        <time>2018-09-19T11:45:15Z</time>
      </trkpt>
      <trkpt lat="49.64633" lon="4.97326">
        <ele>227.97</ele>
        <time>2018-09-19T11:45:33Z</time>
      </trkpt>
      <trkpt lat="49.64626" lon="4.97347">
        <ele>224.61</ele>
        <time>2018-09-19T11:45:48Z</time>
      </trkpt>
      <trkpt lat="49.64619" lon="4.97369">
        <ele>222.68</ele>
        <time>2018-09-19T11:46:03Z</time>
      </trkpt>
      <trkpt lat="49.64608" lon="4.97394">
        <ele>220.28</ele>
        <time>2018-09-19T11:46:23Z</time>
      </trkpt>
      <trkpt lat="49.64607" lon="4.97396">
        <ele>220.28</ele>
        <time>2018-09-19T11:46:25Z</time>
      </trkpt>
      <trkpt lat="49.64595" lon="4.97421">
        <ele>220.28</ele>
        <time>2018-09-19T11:46:44Z</time>
      </trkpt>
      <trkpt lat="49.64587" lon="4.97448">
        <ele>218.36</ele>
        <time>2018-09-19T11:47:02Z</time>
      </trkpt>
      <trkpt lat="49.64581" lon="4.97459">
        <ele>217.4</ele>
        <time>2018-09-19T11:47:12Z</time>
      </trkpt>
      <trkpt lat="49.64577" lon="4.97465">
        <ele>216.91</ele>
        <time>2018-09-19T11:47:19Z</time>
      </trkpt>
      <trkpt lat="49.64566" lon="4.97489">
        <ele>215.95</ele>
        <time>2018-09-19T11:47:37Z</time>
      </trkpt>
      <trkpt lat="49.64566" lon="4.97492">
        <ele>215.95</ele>
        <time>2018-09-19T11:47:39Z</time>
      </trkpt>
      <trkpt lat="49.64558" lon="4.97511">
        <ele>213.55</ele>
        <time>2018-09-19T11:47:54Z</time>
      </trkpt>
      <trkpt lat="49.6455" lon="4.9753">
        <ele>211.15</ele>
        <time>2018-09-19T11:48:10Z</time>
      </trkpt>
      <trkpt lat="49.64541" lon="4.9755">
        <ele>209.22</ele>
        <time>2018-09-19T11:48:25Z</time>
      </trkpt>
      <trkpt lat="49.64532" lon="4.97574">
        <ele>208.26</ele>
        <time>2018-09-19T11:48:43Z</time>
      </trkpt>
      <trkpt lat="49.64522" lon="4.97595">
        <ele>207.3</ele>
        <time>2018-09-19T11:48:59Z</time>
      </trkpt>
      <trkpt lat="49.64512" lon="4.97618">
        <ele>204.9</ele>
        <time>2018-09-19T11:49:15Z</time>
      </trkpt>
      <trkpt lat="49.64505" lon="4.9764">
        <ele>203.46</ele>
        <time>2018-09-19T11:49:32Z</time>
      </trkpt>
      <trkpt lat="49.64494" lon="4.97664">
        <ele>201.53</ele>
        <time>2018-09-19T11:49:50Z</time>
      </trkpt>
      <trkpt lat="49.64485" lon="4.97682">
        <ele>200.57</ele>
        <time>2018-09-19T11:50:06Z</time>
      </trkpt>
      <trkpt lat="49.64483" lon="4.9769">
        <ele>200.57</ele>
        <time>2018-09-19T11:50:13Z</time>
      </trkpt>
      <trkpt lat="49.64473" lon="4.97713">
        <ele>200.57</ele>
        <time>2018-09-19T11:50:31Z</time>
      </trkpt>
      <trkpt lat="49.64464" lon="4.97737">
        <ele>198.65</ele>
        <time>2018-09-19T11:50:47Z</time>
      </trkpt>
      <trkpt lat="49.64453" lon="4.97758">
        <ele>197.69</ele>
        <time>2018-09-19T11:51:04Z</time>
      </trkpt>
      <trkpt lat="49.64447" lon="4.97761">
        <ele>197.69</ele>
        <time>2018-09-19T11:51:11Z</time>
      </trkpt>
      <trkpt lat="49.64431" lon="4.97756">
        <ele>195.77</ele>
        <time>2018-09-19T11:51:26Z</time>
      </trkpt>
      <trkpt lat="49.64415" lon="4.97744">
        <ele>195.77</ele>
        <time>2018-09-19T11:51:42Z</time>
      </trkpt>
      <trkpt lat="49.64398" lon="4.97731">
        <ele>195.28</ele>
        <time>2018-09-19T11:51:58Z</time>
      </trkpt>
      <trkpt lat="49.64385" lon="4.9772">
        <ele>196.73</ele>
        <time>2018-09-19T11:52:12Z</time>
      </trkpt>
      <trkpt lat="49.6437" lon="4.97704">
        <ele>195.28</ele>
        <time>2018-09-19T11:52:28Z</time>
      </trkpt>
      <trkpt lat="49.64355" lon="4.97693">
        <ele>195.28</ele>
        <time>2018-09-19T11:52:43Z</time>
      </trkpt>
      <trkpt lat="49.64346" lon="4.97686">
        <ele>195.77</ele>
        <time>2018-09-19T11:52:52Z</time>
      </trkpt>
      <trkpt lat="49.64341" lon="4.97683">
        <ele>197.21</ele>
        <time>2018-09-19T11:53:04Z</time>
      </trkpt>
      <trkpt lat="49.64326" lon="4.97671">
        <ele>197.69</ele>
        <time>2018-09-19T11:53:20Z</time>
      </trkpt>
      <trkpt lat="49.64312" lon="4.97658">
        <ele>196.73</ele>
        <time>2018-09-19T11:53:35Z</time>
      </trkpt>
      <trkpt lat="49.64305" lon="4.97652">
        <ele>195.28</ele>
        <time>2018-09-19T11:53:42Z</time>
      </trkpt>
      <trkpt lat="49.64289" lon="4.97639">
        <ele>196.25</ele>
        <time>2018-09-19T11:54:00Z</time>
      </trkpt>
      <trkpt lat="49.64287" lon="4.97638">
        <ele>195.77</ele>
        <time>2018-09-19T11:54:02Z</time>
      </trkpt>
      <trkpt lat="49.64274" lon="4.97641">
        <ele>192.88</ele>
        <time>2018-09-19T11:54:16Z</time>
      </trkpt>
      <trkpt lat="49.64264" lon="4.97661">
        <ele>192.4</ele>
        <time>2018-09-19T11:54:31Z</time>
      </trkpt>
      <trkpt lat="49.64259" lon="4.97673">
        <ele>191.44</ele>
        <time>2018-09-19T11:54:41Z</time>
      </trkpt>
      <trkpt lat="49.64249" lon="4.97696">
        <ele>192.4</ele>
        <time>2018-09-19T11:54:57Z</time>
      </trkpt>
      <trkpt lat="49.64248" lon="4.97701">
        <ele>191.92</ele>
        <time>2018-09-19T11:55:00Z</time>
      </trkpt>
      <trkpt lat="49.64245" lon="4.97707">
        <ele>191.44</ele>
        <time>2018-09-19T11:55:04Z</time>
      </trkpt>
      <trkpt lat="49.64237" lon="4.9773">
        <ele>191.44</ele>
        <time>2018-09-19T11:55:21Z</time>
      </trkpt>
      <trkpt lat="49.64229" lon="4.97751">
        <ele>190.48</ele>
        <time>2018-09-19T11:55:36Z</time>
      </trkpt>
      <trkpt lat="49.64219" lon="4.97773">
        <ele>187.11</ele>
        <time>2018-09-19T11:55:52Z</time>
      </trkpt>
      <trkpt lat="49.64212" lon="4.97793">
        <ele>185.67</ele>
        <time>2018-09-19T11:56:07Z</time>
      </trkpt>
      <trkpt lat="49.64204" lon="4.97811">
        <ele>182.31</ele>
        <time>2018-09-19T11:56:21Z</time>
      </trkpt>
      <trkpt lat="49.64198" lon="4.97815">
        <ele>180.87</ele>
        <time>2018-09-19T11:56:28Z</time>
      </trkpt>
      <trkpt lat="49.6419" lon="4.97813">
        <ele>178.94</ele>
        <time>2018-09-19T11:56:41Z</time>
      </trkpt>
      <trkpt lat="49.64177" lon="4.97795">
        <ele>177.5</ele>
        <time>2018-09-19T11:56:57Z</time>
      </trkpt>
      <trkpt lat="49.64164" lon="4.97777">
        <ele>177.5</ele>
        <time>2018-09-19T11:57:12Z</time>
      </trkpt>
      <trkpt lat="49.64148" lon="4.97757">
        <ele>177.5</ele>
        <time>2018-09-19T11:57:29Z</time>
      </trkpt>
      <trkpt lat="49.64134" lon="4.97738">
        <ele>177.5</ele>
        <time>2018-09-19T11:57:46Z</time>
      </trkpt>
      <trkpt lat="49.64128" lon="4.97727">
        <ele>177.98</ele>
        <time>2018-09-19T11:57:55Z</time>
      </trkpt>
      <trkpt lat="49.64123" lon="4.9772">
        <ele>177.5</ele>
        <time>2018-09-19T11:58:00Z</time>
      </trkpt>
      <trkpt lat="49.6411" lon="4.97698">
        <ele>176.06</ele>
        <time>2018-09-19T11:58:17Z</time>
      </trkpt>
      <trkpt lat="49.64099" lon="4.97679">
        <ele>175.1</ele>
        <time>2018-09-19T11:58:32Z</time>
      </trkpt>
      <trkpt lat="49.64085" lon="4.97654">
        <ele>173.17</ele>
        <time>2018-09-19T11:58:51Z</time>
      </trkpt>
      <trkpt lat="49.64071" lon="4.97628">
        <ele>171.73</ele>
        <time>2018-09-19T11:59:10Z</time>
      </trkpt>
      <trkpt lat="49.64069" lon="4.97623">
        <ele>172.21</ele>
        <time>2018-09-19T11:59:13Z</time>
      </trkpt>
      <trkpt lat="49.64061" lon="4.97608">
        <ele>173.17</ele>
        <time>2018-09-19T11:59:25Z</time>
      </trkpt>
      <trkpt lat="49.64057" lon="4.97601">
        <ele>173.17</ele>
        <time>2018-09-19T11:59:30Z</time>
      </trkpt>
      <trkpt lat="49.64043" lon="4.97588">
        <ele>174.14</ele>
        <time>2018-09-19T11:59:45Z</time>
      </trkpt>
      <trkpt lat="49.64025" lon="4.97583">
        <ele>174.62</ele>
        <time>2018-09-19T12:00:00Z</time>
      </trkpt>
      <trkpt lat="49.64018" lon="4.97584">
        <ele>175.1</ele>
        <time>2018-09-19T12:00:06Z</time>
      </trkpt>
      <trkpt lat="49.63996" lon="4.97582">
        <ele>176.06</ele>
        <time>2018-09-19T12:00:25Z</time>
      </trkpt>
      <trkpt lat="49.63976" lon="4.97579">
        <ele>177.98</ele>
        <time>2018-09-19T12:00:42Z</time>
      </trkpt>
      <trkpt lat="49.63954" lon="4.97573">
        <ele>177.5</ele>
        <time>2018-09-19T12:01:00Z</time>
      </trkpt>
      <trkpt lat="49.63935" lon="4.97565">
        <ele>176.06</ele>
        <time>2018-09-19T12:01:17Z</time>
      </trkpt>
      <trkpt lat="49.63918" lon="4.97553">
        <ele>177.5</ele>
        <time>2018-09-19T12:01:34Z</time>
      </trkpt>
      <trkpt lat="49.63897" lon="4.97541">
        <ele>178.94</ele>
        <time>2018-09-19T12:01:54Z</time>
      </trkpt>
      <trkpt lat="49.63878" lon="4.97532">
        <ele>180.38</ele>
        <time>2018-09-19T12:02:14Z</time>
      </trkpt>
      <trkpt lat="49.6386" lon="4.97533">
        <ele>179.42</ele>
        <time>2018-09-19T12:02:31Z</time>
      </trkpt>
      <trkpt lat="49.63851" lon="4.97548">
        <ele>176.54</ele>
        <time>2018-09-19T12:02:44Z</time>
      </trkpt>
      <trkpt lat="49.63847" lon="4.97566">
        <ele>174.62</ele>
        <time>2018-09-19T12:02:57Z</time>
      </trkpt>
      <trkpt lat="49.63845" lon="4.97577">
        <ele>174.14</ele>
        <time>2018-09-19T12:03:04Z</time>
      </trkpt>
      <trkpt lat="49.63845" lon="4.97584">
        <ele>173.66</ele>
        <time>2018-09-19T12:03:08Z</time>
      </trkpt>
      <trkpt lat="49.63844" lon="4.97595">
        <ele>173.17</ele>
        <time>2018-09-19T12:03:16Z</time>
      </trkpt>
      <trkpt lat="49.63838" lon="4.9762">
        <ele>171.73</ele>
        <time>2018-09-19T12:03:32Z</time>
      </trkpt>
      <trkpt lat="49.63833" lon="4.97631">
        <ele>170.77</ele>
        <time>2018-09-19T12:03:39Z</time>
      </trkpt>
      <trkpt lat="49.63831" lon="4.97638">
        <ele>169.81</ele>
        <time>2018-09-19T12:03:43Z</time>
      </trkpt>
      <trkpt lat="49.63813" lon="4.97661">
        <ele>164.04</ele>
        <time>2018-09-19T12:04:03Z</time>
      </trkpt>
      <trkpt lat="49.63792" lon="4.97675">
        <ele>159.72</ele>
        <time>2018-09-19T12:04:23Z</time>
      </trkpt>
      <trkpt lat="49.63775" lon="4.9768">
        <ele>157.79</ele>
        <time>2018-09-19T12:04:40Z</time>
      </trkpt>
      <trkpt lat="49.63755" lon="4.97674">
        <ele>160.2</ele>
        <time>2018-09-19T12:04:58Z</time>
      </trkpt>
      <trkpt lat="49.63736" lon="4.97672">
        <ele>163.08</ele>
        <time>2018-09-19T12:05:15Z</time>
      </trkpt>
      <trkpt lat="49.63718" lon="4.97668">
        <ele>165.48</ele>
        <time>2018-09-19T12:05:31Z</time>
      </trkpt>
      <trkpt lat="49.63702" lon="4.97664">
        <ele>166.45</ele>
        <time>2018-09-19T12:05:46Z</time>
      </trkpt>
      <trkpt lat="49.63682" lon="4.97661">
        <ele>168.37</ele>
        <time>2018-09-19T12:06:04Z</time>
      </trkpt>
      <trkpt lat="49.63666" lon="4.97655">
        <ele>169.81</ele>
        <time>2018-09-19T12:06:21Z</time>
      </trkpt>
      <trkpt lat="49.63654" lon="4.97646">
        <ele>171.73</ele>
        <time>2018-09-19T12:06:34Z</time>
      </trkpt>
      <trkpt lat="49.63646" lon="4.9764">
        <ele>171.73</ele>
        <time>2018-09-19T12:06:50Z</time>
      </trkpt>
      <trkpt lat="49.63645" lon="4.9764">
        <ele>171.25</ele>
        <time>2018-09-19T12:06:56Z</time>
      </trkpt>
      <trkpt lat="49.63643" lon="4.97639">
        <ele>169.33</ele>
        <time>2018-09-19T12:07:10Z</time>
      </trkpt>
      <trkpt lat="49.63643" lon="4.97638">
        <ele>169.81</ele>
        <time>2018-09-19T12:07:29Z</time>
      </trkpt>
      <trkpt lat="49.63643" lon="4.97638">
        <ele>170.29</ele>
        <time>2018-09-19T12:07:34Z</time>
      </trkpt>
      <trkpt lat="49.63646" lon="4.97622">
        <ele>171.25</ele>
        <time>2018-09-19T12:07:45Z</time>
      </trkpt>
      <trkpt lat="49.63653" lon="4.97598">
        <ele>173.66</ele>
        <time>2018-09-19T12:08:01Z</time>
      </trkpt>
      <trkpt lat="49.63655" lon="4.97591">
        <ele>175.58</ele>
        <time>2018-09-19T12:08:06Z</time>
      </trkpt>
      <trkpt lat="49.6365" lon="4.97556">
        <ele>179.42</ele>
        <time>2018-09-19T12:08:24Z</time>
      </trkpt>
      <trkpt lat="49.63646" lon="4.97527">
        <ele>179.42</ele>
        <time>2018-09-19T12:08:40Z</time>
      </trkpt>
      <trkpt lat="49.63644" lon="4.975">
        <ele>179.9</ele>
        <time>2018-09-19T12:08:55Z</time>
      </trkpt>
      <trkpt lat="49.63645" lon="4.97473">
        <ele>180.87</ele>
        <time>2018-09-19T12:09:11Z</time>
      </trkpt>
      <trkpt lat="49.63651" lon="4.97444">
        <ele>182.31</ele>
        <time>2018-09-19T12:09:28Z</time>
      </trkpt>
      <trkpt lat="49.63652" lon="4.97435">
        <ele>182.79</ele>
        <time>2018-09-19T12:09:35Z</time>
      </trkpt>
      <trkpt lat="49.63647" lon="4.97427">
        <ele>183.27</ele>
        <time>2018-09-19T12:09:40Z</time>
      </trkpt>
      <trkpt lat="49.63634" lon="4.97411">
        <ele>185.19</ele>
        <time>2018-09-19T12:09:53Z</time>
      </trkpt>
      <trkpt lat="49.63619" lon="4.97395">
        <ele>183.75</ele>
        <time>2018-09-19T12:10:08Z</time>
      </trkpt>
      <trkpt lat="49.63601" lon="4.97376">
        <ele>187.11</ele>
        <time>2018-09-19T12:10:25Z</time>
      </trkpt>
      <trkpt lat="49.63587" lon="4.97359">
        <ele>188.08</ele>
        <time>2018-09-19T12:10:41Z</time>
      </trkpt>
      <trkpt lat="49.63573" lon="4.9734">
        <ele>188.08</ele>
        <time>2018-09-19T12:10:57Z</time>
      </trkpt>
      <trkpt lat="49.63564" lon="4.97329">
        <ele>188.56</ele>
        <time>2018-09-19T12:11:07Z</time>
      </trkpt>
      <trkpt lat="49.63555" lon="4.97302">
        <ele>186.63</ele>
        <time>2018-09-19T12:11:24Z</time>
      </trkpt>
      <trkpt lat="49.63549" lon="4.97276">
        <ele>184.23</ele>
        <time>2018-09-19T12:11:40Z</time>
      </trkpt>
      <trkpt lat="49.63543" lon="4.9725">
        <ele>180.87</ele>
        <time>2018-09-19T12:11:55Z</time>
      </trkpt>
      <trkpt lat="49.63534" lon="4.97222">
        <ele>179.9</ele>
        <time>2018-09-19T12:12:12Z</time>
      </trkpt>
      <trkpt lat="49.63526" lon="4.97198">
        <ele>179.42</ele>
        <time>2018-09-19T12:12:28Z</time>
      </trkpt>
      <trkpt lat="49.63518" lon="4.97173">
        <ele>178.94</ele>
        <time>2018-09-19T12:12:44Z</time>
      </trkpt>
      <trkpt lat="49.6351" lon="4.97144">
        <ele>178.94</ele>
        <time>2018-09-19T12:13:02Z</time>
      </trkpt>
      <trkpt lat="49.63503" lon="4.97118">
        <ele>179.42</ele>
        <time>2018-09-19T12:13:19Z</time>
      </trkpt>
      <trkpt lat="49.63497" lon="4.97099">
        <ele>178.46</ele>
        <time>2018-09-19T12:13:31Z</time>
      </trkpt>
      <trkpt lat="49.63489" lon="4.97069">
        <ele>176.54</ele>
        <time>2018-09-19T12:13:50Z</time>
      </trkpt>
      <trkpt lat="49.63481" lon="4.97045">
        <ele>175.58</ele>
        <time>2018-09-19T12:14:06Z</time>
      </trkpt>
      <trkpt lat="49.63475" lon="4.97027">
        <ele>175.1</ele>
        <time>2018-09-19T12:14:18Z</time>
      </trkpt>
      <trkpt lat="49.63472" lon="4.97014">
        <ele>173.66</ele>
        <time>2018-09-19T12:14:28Z</time>
      </trkpt>
      <trkpt lat="49.6347" lon="4.96984">
        <ele>170.77</ele>
        <time>2018-09-19T12:14:45Z</time>
      </trkpt>
      <trkpt lat="49.63469" lon="4.96978">
        <ele>171.25</ele>
        <time>2018-09-19T12:14:48Z</time>
      </trkpt>
      <trkpt lat="49.6346" lon="4.96954">
        <ele>170.29</ele>
        <time>2018-09-19T12:15:04Z</time>
      </trkpt>
      <trkpt lat="49.63448" lon="4.96931">
        <ele>173.17</ele>
        <time>2018-09-19T12:15:21Z</time>
      </trkpt>
      <trkpt lat="49.63434" lon="4.96914">
        <ele>173.66</ele>
        <time>2018-09-19T12:15:37Z</time>
      </trkpt>
      <trkpt lat="49.63423" lon="4.96899">
        <ele>172.69</ele>
        <time>2018-09-19T12:15:51Z</time>
      </trkpt>
      <trkpt lat="49.63408" lon="4.96881">
        <ele>173.66</ele>
        <time>2018-09-19T12:16:08Z</time>
      </trkpt>
      <trkpt lat="49.63396" lon="4.96866">
        <ele>173.17</ele>
        <time>2018-09-19T12:16:22Z</time>
      </trkpt>
      <trkpt lat="49.63381" lon="4.96848">
        <ele>173.17</ele>
        <time>2018-09-19T12:16:39Z</time>
      </trkpt>
      <trkpt lat="49.63372" lon="4.96835">
        <ele>173.17</ele>
        <time>2018-09-19T12:16:51Z</time>
      </trkpt>
      <trkpt lat="49.63366" lon="4.96827">
        <ele>171.73</ele>
        <time>2018-09-19T12:16:59Z</time>
      </trkpt>
      <trkpt lat="49.63357" lon="4.96817">
        <ele>169.33</ele>
        <time>2018-09-19T12:17:10Z</time>
      </trkpt>
      <trkpt lat="49.63344" lon="4.9679">
        <ele>168.37</ele>
        <time>2018-09-19T12:17:30Z</time>
      </trkpt>
      <trkpt lat="49.63339" lon="4.96769">
        <ele>167.41</ele>
        <time>2018-09-19T12:17:44Z</time>
      </trkpt>
      <trkpt lat="49.63336" lon="4.96742">
        <ele>167.89</ele>
        <time>2018-09-19T12:18:00Z</time>
      </trkpt>
      <trkpt lat="49.63332" lon="4.96712">
        <ele>168.85</ele>
        <time>2018-09-19T12:18:19Z</time>
      </trkpt>
      <trkpt lat="49.63324" lon="4.96691">
        <ele>170.77</ele>
        <time>2018-09-19T12:18:33Z</time>
      </trkpt>
      <trkpt lat="49.63313" lon="4.96675">
        <ele>169.81</ele>
        <time>2018-09-19T12:18:47Z</time>
      </trkpt>
      <trkpt lat="49.63313" lon="4.96674">
        <ele>169.81</ele>
        <time>2018-09-19T12:18:53Z</time>
      </trkpt>
      <trkpt lat="49.633" lon="4.96659">
        <ele>169.81</ele>
        <time>2018-09-19T12:19:08Z</time>
      </trkpt>
      <trkpt lat="49.63295" lon="4.96648">
        <ele>170.77</ele>
        <time>2018-09-19T12:19:17Z</time>
      </trkpt>
      <trkpt lat="49.63287" lon="4.96618">
        <ele>172.69</ele>
        <time>2018-09-19T12:19:35Z</time>
      </trkpt>
      <trkpt lat="49.63276" lon="4.96601">
        <ele>174.14</ele>
        <time>2018-09-19T12:19:48Z</time>
      </trkpt>
      <trkpt lat="49.63261" lon="4.96589">
        <ele>172.69</ele>
        <time>2018-09-19T12:20:01Z</time>
      </trkpt>
      <trkpt lat="49.63245" lon="4.96577">
        <ele>173.17</ele>
        <time>2018-09-19T12:20:17Z</time>
      </trkpt>
      <trkpt lat="49.63229" lon="4.96563">
        <ele>173.17</ele>
        <time>2018-09-19T12:20:33Z</time>
      </trkpt>
      <trkpt lat="49.63213" lon="4.9655">
        <ele>174.62</ele>
        <time>2018-09-19T12:20:49Z</time>
      </trkpt>
      <trkpt lat="49.63197" lon="4.96537">
        <ele>175.1</ele>
        <time>2018-09-19T12:21:03Z</time>
      </trkpt>
      <trkpt lat="49.6318" lon="4.96527">
        <ele>175.58</ele>
        <time>2018-09-19T12:21:17Z</time>
      </trkpt>
      <trkpt lat="49.6316" lon="4.96517">
        <ele>174.14</ele>
        <time>2018-09-19T12:21:36Z</time>
      </trkpt>
      <trkpt lat="49.63141" lon="4.96506">
        <ele>171.25</ele>
        <time>2018-09-19T12:21:54Z</time>
      </trkpt>
      <trkpt lat="49.63124" lon="4.96495">
        <ele>169.81</ele>
        <time>2018-09-19T12:22:10Z</time>
      </trkpt>
      <trkpt lat="49.63108" lon="4.96486">
        <ele>170.29</ele>
        <time>2018-09-19T12:22:24Z</time>
      </trkpt>
      <trkpt lat="49.6309" lon="4.96475">
        <ele>171.25</ele>
        <time>2018-09-19T12:22:41Z</time>
      </trkpt>
      <trkpt lat="49.6307" lon="4.96464">
        <ele>171.73</ele>
        <time>2018-09-19T12:22:57Z</time>
      </trkpt>
      <trkpt lat="49.63053" lon="4.9645">
        <ele>172.21</ele>
        <time>2018-09-19T12:23:13Z</time>
      </trkpt>
      <trkpt lat="49.63034" lon="4.96438">
        <ele>173.17</ele>
        <time>2018-09-19T12:23:30Z</time>
      </trkpt>
      <trkpt lat="49.63016" lon="4.96425">
        <ele>172.21</ele>
        <time>2018-09-19T12:23:48Z</time>
      </trkpt>
      <trkpt lat="49.62999" lon="4.96414">
        <ele>172.21</ele>
        <time>2018-09-19T12:24:05Z</time>
      </trkpt>
      <trkpt lat="49.62983" lon="4.96403">
        <ele>172.21</ele>
        <time>2018-09-19T12:24:20Z</time>
      </trkpt>
      <trkpt lat="49.62966" lon="4.96391">
        <ele>171.73</ele>
        <time>2018-09-19T12:24:37Z</time>
      </trkpt>
      <trkpt lat="49.62951" lon="4.96381">
        <ele>171.25</ele>
        <time>2018-09-19T12:24:50Z</time>
      </trkpt>
      <trkpt lat="49.62932" lon="4.96366">
        <ele>174.62</ele>
        <time>2018-09-19T12:25:08Z</time>
      </trkpt>
      <trkpt lat="49.62917" lon="4.96354">
        <ele>175.1</ele>
        <time>2018-09-19T12:25:24Z</time>
      </trkpt>
      <trkpt lat="49.62902" lon="4.96341">
        <ele>177.02</ele>
        <time>2018-09-19T12:25:39Z</time>
      </trkpt>
      <trkpt lat="49.62884" lon="4.96327">
        <ele>178.46</ele>
        <time>2018-09-19T12:25:55Z</time>
      </trkpt>
      <trkpt lat="49.62868" lon="4.96316">
        <ele>178.46</ele>
        <time>2018-09-19T12:26:10Z</time>
      </trkpt>
      <trkpt lat="49.62852" lon="4.96308">
        <ele>177.02</ele>
        <time>2018-09-19T12:26:26Z</time>
      </trkpt>
      <trkpt lat="49.62848" lon="4.96306">
        <ele>176.06</ele>
        <time>2018-09-19T12:26:30Z</time>
      </trkpt>
      <trkpt lat="49.62827" lon="4.96296">
        <ele>177.02</ele>
        <time>2018-09-19T12:26:48Z</time>
      </trkpt>
      <trkpt lat="49.62819" lon="4.96295">
        <ele>179.42</ele>
        <time>2018-09-19T12:26:56Z</time>
      </trkpt>
      <trkpt lat="49.62802" lon="4.96285">
        <ele>179.42</ele>
        <time>2018-09-19T12:27:13Z</time>
      </trkpt>
      <trkpt lat="49.62791" lon="4.96274">
        <ele>176.06</ele>
        <time>2018-09-19T12:27:26Z</time>
      </trkpt>
      <trkpt lat="49.62778" lon="4.96263">
        <ele>171.25</ele>
        <time>2018-09-19T12:27:39Z</time>
      </trkpt>
      <trkpt lat="49.6276" lon="4.96255">
        <ele>172.69</ele>
        <time>2018-09-19T12:27:55Z</time>
      </trkpt>
      <trkpt lat="49.62743" lon="4.96242">
        <ele>174.14</ele>
        <time>2018-09-19T12:28:11Z</time>
      </trkpt>
      <trkpt lat="49.62727" lon="4.96232">
        <ele>173.17</ele>
        <time>2018-09-19T12:28:27Z</time>
      </trkpt>
      <trkpt lat="49.62713" lon="4.96223">
        <ele>172.21</ele>
        <time>2018-09-19T12:28:40Z</time>
      </trkpt>
      <trkpt lat="49.627" lon="4.96213">
        <ele>172.69</ele>
        <time>2018-09-19T12:28:53Z</time>
      </trkpt>
      <trkpt lat="49.62694" lon="4.96206">
        <ele>172.69</ele>
        <time>2018-09-19T12:29:02Z</time>
      </trkpt>
      <trkpt lat="49.62679" lon="4.96179">
        <ele>171.73</ele>
        <time>2018-09-19T12:29:22Z</time>
      </trkpt>
      <trkpt lat="49.62664" lon="4.96156">
        <ele>172.69</ele>
        <time>2018-09-19T12:29:40Z</time>
      </trkpt>
      <trkpt lat="49.62654" lon="4.96142">
        <ele>175.58</ele>
        <time>2018-09-19T12:29:53Z</time>
      </trkpt>
      <trkpt lat="49.62645" lon="4.96129">
        <ele>179.9</ele>
        <time>2018-09-19T12:30:06Z</time>
      </trkpt>
      <trkpt lat="49.62635" lon="4.96117">
        <ele>183.27</ele>
        <time>2018-09-19T12:30:19Z</time>
      </trkpt>
      <trkpt lat="49.62625" lon="4.96105">
        <ele>184.71</ele>
        <time>2018-09-19T12:30:32Z</time>
      </trkpt>
      <trkpt lat="49.62613" lon="4.96096">
        <ele>187.59</ele>
        <time>2018-09-19T12:30:45Z</time>
      </trkpt>
      <trkpt lat="49.626" lon="4.96093">
        <ele>190</ele>
        <time>2018-09-19T12:30:58Z</time>
      </trkpt>
      <trkpt lat="49.62586" lon="4.96094">
        <ele>191.44</ele>
        <time>2018-09-19T12:31:10Z</time>
      </trkpt>
      <trkpt lat="49.6257" lon="4.96099">
        <ele>190.48</ele>
        <time>2018-09-19T12:31:25Z</time>
      </trkpt>
      <trkpt lat="49.62565" lon="4.961">
        <ele>190</ele>
        <time>2018-09-19T12:31:30Z</time>
      </trkpt>
      <trkpt lat="49.62558" lon="4.96103">
        <ele>189.52</ele>
        <time>2018-09-19T12:31:43Z</time>
      </trkpt>
      <trkpt lat="49.62556" lon="4.96102">
        <ele>189.52</ele>
        <time>2018-09-19T12:32:09Z</time>
      </trkpt>
      <trkpt lat="49.62555" lon="4.96102">
        <ele>190</ele>
        <time>2018-09-19T12:32:24Z</time>
      </trkpt>
      <trkpt lat="49.62555" lon="4.96103">
        <ele>189.52</ele>
        <time>2018-09-19T12:32:44Z</time>
      </trkpt>
      <trkpt lat="49.62555" lon="4.96103">
        <ele>190</ele>
        <time>2018-09-19T12:33:01Z</time>
      </trkpt>
      <trkpt lat="49.62555" lon="4.96104">
        <ele>189.52</ele>
        <time>2018-09-19T12:33:25Z</time>
      </trkpt>
      <trkpt lat="49.62555" lon="4.96104">
        <ele>189.52</ele>
        <time>2018-09-19T12:33:52Z</time>
      </trkpt>
      <trkpt lat="49.62554" lon="4.96105">
        <ele>190</ele>
        <time>2018-09-19T12:34:19Z</time>
      </trkpt>
      <trkpt lat="49.62554" lon="4.96105">
        <ele>190.96</ele>
        <time>2018-09-19T12:34:43Z</time>
      </trkpt>
      <trkpt lat="49.62553" lon="4.96105">
        <ele>190.96</ele>
        <time>2018-09-19T12:35:06Z</time>
      </trkpt>
      <trkpt lat="49.62554" lon="4.96105">
        <ele>191.44</ele>
        <time>2018-09-19T12:35:26Z</time>
      </trkpt>
      <trkpt lat="49.62553" lon="4.96105">
        <ele>191.44</ele>
        <time>2018-09-19T12:35:51Z</time>
      </trkpt>
      <trkpt lat="49.62553" lon="4.96105">
        <ele>191.92</ele>
        <time>2018-09-19T12:36:17Z</time>
      </trkpt>
      <trkpt lat="49.62553" lon="4.96105">
        <ele>191.92</ele>
        <time>2018-09-19T12:36:45Z</time>
      </trkpt>
      <trkpt lat="49.6255" lon="4.96106">
        <ele>191.92</ele>
        <time>2018-09-19T12:36:59Z</time>
      </trkpt>
      <trkpt lat="49.62548" lon="4.96107">
        <ele>191.92</ele>
        <time>2018-09-19T12:37:01Z</time>
      </trkpt>
      <trkpt lat="49.6253" lon="4.96108">
        <ele>190.96</ele>
        <time>2018-09-19T12:37:18Z</time>
      </trkpt>
      <trkpt lat="49.62511" lon="4.96108">
        <ele>189.52</ele>
        <time>2018-09-19T12:37:34Z</time>
      </trkpt>
      <trkpt lat="49.6249" lon="4.96103">
        <ele>189.04</ele>
        <time>2018-09-19T12:37:50Z</time>
      </trkpt>
      <trkpt lat="49.62473" lon="4.96098">
        <ele>186.63</ele>
        <time>2018-09-19T12:38:06Z</time>
      </trkpt>
      <trkpt lat="49.62458" lon="4.96092">
        <ele>186.15</ele>
        <time>2018-09-19T12:38:20Z</time>
      </trkpt>
      <trkpt lat="49.62455" lon="4.96092">
        <ele>186.63</ele>
        <time>2018-09-19T12:38:23Z</time>
      </trkpt>
      <trkpt lat="49.62438" lon="4.96081">
        <ele>186.15</ele>
        <time>2018-09-19T12:38:37Z</time>
      </trkpt>
      <trkpt lat="49.62418" lon="4.96072">
        <ele>189.04</ele>
        <time>2018-09-19T12:38:52Z</time>
      </trkpt>
      <trkpt lat="49.624" lon="4.96063">
        <ele>191.92</ele>
        <time>2018-09-19T12:39:09Z</time>
      </trkpt>
      <trkpt lat="49.62394" lon="4.96046">
        <ele>188.08</ele>
        <time>2018-09-19T12:39:23Z</time>
      </trkpt>
      <trkpt lat="49.62385" lon="4.96017">
        <ele>183.75</ele>
        <time>2018-09-19T12:39:41Z</time>
      </trkpt>
      <trkpt lat="49.62379" lon="4.95988">
        <ele>182.31</ele>
        <time>2018-09-19T12:39:58Z</time>
      </trkpt>
      <trkpt lat="49.62373" lon="4.95963">
        <ele>182.79</ele>
        <time>2018-09-19T12:40:13Z</time>
      </trkpt>
      <trkpt lat="49.62368" lon="4.95936">
        <ele>182.31</ele>
        <time>2018-09-19T12:40:30Z</time>
      </trkpt>
      <trkpt lat="49.62361" lon="4.95909">
        <ele>177.98</ele>
        <time>2018-09-19T12:40:48Z</time>
      </trkpt>
      <trkpt lat="49.62354" lon="4.95889">
        <ele>177.98</ele>
        <time>2018-09-19T12:41:01Z</time>
      </trkpt>
      <trkpt lat="49.62351" lon="4.95882">
        <ele>177.02</ele>
        <time>2018-09-19T12:41:06Z</time>
      </trkpt>
      <trkpt lat="49.62343" lon="4.95881">
        <ele>174.62</ele>
        <time>2018-09-19T12:41:12Z</time>
      </trkpt>
      <trkpt lat="49.62325" lon="4.95889">
        <ele>174.62</ele>
        <time>2018-09-19T12:41:28Z</time>
      </trkpt>
      <trkpt lat="49.62305" lon="4.95896">
        <ele>177.5</ele>
        <time>2018-09-19T12:41:44Z</time>
      </trkpt>
      <trkpt lat="49.62301" lon="4.95898">
        <ele>177.02</ele>
        <time>2018-09-19T12:41:47Z</time>
      </trkpt>
      <trkpt lat="49.62293" lon="4.95907">
        <ele>174.62</ele>
        <time>2018-09-19T12:41:55Z</time>
      </trkpt>
      <trkpt lat="49.62281" lon="4.9593">
        <ele>169.81</ele>
        <time>2018-09-19T12:42:10Z</time>
      </trkpt>
      <trkpt lat="49.62263" lon="4.9595">
        <ele>171.73</ele>
        <time>2018-09-19T12:42:30Z</time>
      </trkpt>
      <trkpt lat="49.62246" lon="4.95973">
        <ele>171.25</ele>
        <time>2018-09-19T12:42:49Z</time>
      </trkpt>
      <trkpt lat="49.62239" lon="4.95982">
        <ele>172.69</ele>
        <time>2018-09-19T12:42:59Z</time>
      </trkpt>
      <trkpt lat="49.62231" lon="4.95983">
        <ele>173.66</ele>
        <time>2018-09-19T12:43:06Z</time>
      </trkpt>
      <trkpt lat="49.62225" lon="4.9599">
        <ele>172.21</ele>
        <time>2018-09-19T12:43:13Z</time>
      </trkpt>
      <trkpt lat="49.62213" lon="4.96011">
        <ele>169.81</ele>
        <time>2018-09-19T12:43:28Z</time>
      </trkpt>
      <trkpt lat="49.62206" lon="4.96012">
        <ele>169.81</ele>
        <time>2018-09-19T12:43:38Z</time>
      </trkpt>
      <trkpt lat="49.62183" lon="4.96019">
        <ele>168.37</ele>
        <time>2018-09-19T12:43:54Z</time>
      </trkpt>
      <trkpt lat="49.62165" lon="4.96022">
        <ele>168.37</ele>
        <time>2018-09-19T12:44:09Z</time>
      </trkpt>
      <trkpt lat="49.62164" lon="4.96022">
        <ele>168.37</ele>
        <time>2018-09-19T12:44:10Z</time>
      </trkpt>
      <trkpt lat="49.62153" lon="4.96025">
        <ele>168.85</ele>
        <time>2018-09-19T12:44:20Z</time>
      </trkpt>
      <trkpt lat="49.62151" lon="4.96025">
        <ele>169.33</ele>
        <time>2018-09-19T12:44:22Z</time>
      </trkpt>
      <trkpt lat="49.62146" lon="4.96023">
        <ele>169.81</ele>
        <time>2018-09-19T12:44:26Z</time>
      </trkpt>
      <trkpt lat="49.6213" lon="4.96024">
        <ele>171.73</ele>
        <time>2018-09-19T12:44:40Z</time>
      </trkpt>
      <trkpt lat="49.62124" lon="4.96025">
        <ele>172.21</ele>
        <time>2018-09-19T12:44:45Z</time>
      </trkpt>
      <trkpt lat="49.62105" lon="4.96032">
        <ele>174.62</ele>
        <time>2018-09-19T12:45:02Z</time>
      </trkpt>
      <trkpt lat="49.62089" lon="4.96035">
        <ele>177.02</ele>
        <time>2018-09-19T12:45:17Z</time>
      </trkpt>
      <trkpt lat="49.6207" lon="4.96038">
        <ele>177.5</ele>
        <time>2018-09-19T12:45:34Z</time>
      </trkpt>
      <trkpt lat="49.62048" lon="4.96043">
        <ele>178.94</ele>
        <time>2018-09-19T12:45:52Z</time>
      </trkpt>
      <trkpt lat="49.62027" lon="4.96048">
        <ele>177.98</ele>
        <time>2018-09-19T12:46:10Z</time>
      </trkpt>
      <trkpt lat="49.62008" lon="4.96047">
        <ele>175.58</ele>
        <time>2018-09-19T12:46:27Z</time>
      </trkpt>
      <trkpt lat="49.6199" lon="4.96047">
        <ele>175.1</ele>
        <time>2018-09-19T12:46:43Z</time>
      </trkpt>
      <trkpt lat="49.61985" lon="4.96048">
        <ele>175.58</ele>
        <time>2018-09-19T12:46:48Z</time>
      </trkpt>
      <trkpt lat="49.61965" lon="4.96046">
        <ele>176.06</ele>
        <time>2018-09-19T12:47:05Z</time>
      </trkpt>
      <trkpt lat="49.61945" lon="4.96043">
        <ele>177.02</ele>
        <time>2018-09-19T12:47:22Z</time>
      </trkpt>
      <trkpt lat="49.61928" lon="4.96041">
        <ele>177.02</ele>
        <time>2018-09-19T12:47:36Z</time>
      </trkpt>
      <trkpt lat="49.61923" lon="4.96042">
        <ele>176.54</ele>
        <time>2018-09-19T12:47:43Z</time>
      </trkpt>
      <trkpt lat="49.61899" lon="4.96033">
        <ele>177.02</ele>
        <time>2018-09-19T12:48:02Z</time>
      </trkpt>
      <trkpt lat="49.61898" lon="4.96032">
        <ele>177.5</ele>
        <time>2018-09-19T12:48:15Z</time>
      </trkpt>
      <trkpt lat="49.61898" lon="4.96031">
        <ele>177.5</ele>
        <time>2018-09-19T12:48:25Z</time>
      </trkpt>
      <trkpt lat="49.61883" lon="4.9603">
        <ele>178.46</ele>
        <time>2018-09-19T12:48:41Z</time>
      </trkpt>
      <trkpt lat="49.6186" lon="4.96025">
        <ele>182.79</ele>
        <time>2018-09-19T12:48:58Z</time>
      </trkpt>
      <trkpt lat="49.6184" lon="4.96023">
        <ele>182.79</ele>
        <time>2018-09-19T12:49:15Z</time>
      </trkpt>
      <trkpt lat="49.61819" lon="4.96018">
        <ele>184.23</ele>
        <time>2018-09-19T12:49:32Z</time>
      </trkpt>
      <trkpt lat="49.61802" lon="4.96012">
        <ele>185.67</ele>
        <time>2018-09-19T12:49:47Z</time>
      </trkpt>
      <trkpt lat="49.61787" lon="4.96005">
        <ele>185.67</ele>
        <time>2018-09-19T12:50:02Z</time>
      </trkpt>
      <trkpt lat="49.61768" lon="4.95998">
        <ele>189.04</ele>
        <time>2018-09-19T12:50:18Z</time>
      </trkpt>
      <trkpt lat="49.61751" lon="4.95993">
        <ele>190</ele>
        <time>2018-09-19T12:50:33Z</time>
      </trkpt>
      <trkpt lat="49.61749" lon="4.95991">
        <ele>190.48</ele>
        <time>2018-09-19T12:50:35Z</time>
      </trkpt>
      <trkpt lat="49.6173" lon="4.95985">
        <ele>190.48</ele>
        <time>2018-09-19T12:50:51Z</time>
      </trkpt>
      <trkpt lat="49.61712" lon="4.95979">
        <ele>190.96</ele>
        <time>2018-09-19T12:51:07Z</time>
      </trkpt>
      <trkpt lat="49.61708" lon="4.95976">
        <ele>190.48</ele>
        <time>2018-09-19T12:51:13Z</time>
      </trkpt>
      <trkpt lat="49.61691" lon="4.95955">
        <ele>192.88</ele>
        <time>2018-09-19T12:51:30Z</time>
      </trkpt>
      <trkpt lat="49.61678" lon="4.95946">
        <ele>192.88</ele>
        <time>2018-09-19T12:51:44Z</time>
      </trkpt>
      <trkpt lat="49.61675" lon="4.95946">
        <ele>192.88</ele>
        <time>2018-09-19T12:51:46Z</time>
      </trkpt>
      <trkpt lat="49.61655" lon="4.95935">
        <ele>190.48</ele>
        <time>2018-09-19T12:52:03Z</time>
      </trkpt>
      <trkpt lat="49.61637" lon="4.95922">
        <ele>190.96</ele>
        <time>2018-09-19T12:52:20Z</time>
      </trkpt>
      <trkpt lat="49.61623" lon="4.95911">
        <ele>192.88</ele>
        <time>2018-09-19T12:52:32Z</time>
      </trkpt>
      <trkpt lat="49.61607" lon="4.95899">
        <ele>193.36</ele>
        <time>2018-09-19T12:52:48Z</time>
      </trkpt>
      <trkpt lat="49.61593" lon="4.95889">
        <ele>194.32</ele>
        <time>2018-09-19T12:53:01Z</time>
      </trkpt>
      <trkpt lat="49.6158" lon="4.95881">
        <ele>195.28</ele>
        <time>2018-09-19T12:53:13Z</time>
      </trkpt>
      <trkpt lat="49.61575" lon="4.95879">
        <ele>195.28</ele>
        <time>2018-09-19T12:53:17Z</time>
      </trkpt>
      <trkpt lat="49.61572" lon="4.95877">
        <ele>194.8</ele>
        <time>2018-09-19T12:53:19Z</time>
      </trkpt>
      <trkpt lat="49.61567" lon="4.95876">
        <ele>194.32</ele>
        <time>2018-09-19T12:53:25Z</time>
      </trkpt>
      <trkpt lat="49.61551" lon="4.95866">
        <ele>197.21</ele>
        <time>2018-09-19T12:53:40Z</time>
      </trkpt>
      <trkpt lat="49.61535" lon="4.95858">
        <ele>197.21</ele>
        <time>2018-09-19T12:53:54Z</time>
      </trkpt>
      <trkpt lat="49.61525" lon="4.95851">
        <ele>197.21</ele>
        <time>2018-09-19T12:54:04Z</time>
      </trkpt>
      <trkpt lat="49.61513" lon="4.95846">
        <ele>197.21</ele>
        <time>2018-09-19T12:54:17Z</time>
      </trkpt>
      <trkpt lat="49.61496" lon="4.95833">
        <ele>198.17</ele>
        <time>2018-09-19T12:54:32Z</time>
      </trkpt>
      <trkpt lat="49.61477" lon="4.95822">
        <ele>193.36</ele>
        <time>2018-09-19T12:54:49Z</time>
      </trkpt>
      <trkpt lat="49.6146" lon="4.95809">
        <ele>192.4</ele>
        <time>2018-09-19T12:55:05Z</time>
      </trkpt>
      <trkpt lat="49.61442" lon="4.95794">
        <ele>190.48</ele>
        <time>2018-09-19T12:55:21Z</time>
      </trkpt>
      <trkpt lat="49.61425" lon="4.95777">
        <ele>190</ele>
        <time>2018-09-19T12:55:39Z</time>
      </trkpt>
      <trkpt lat="49.61413" lon="4.95766">
        <ele>189.52</ele>
        <time>2018-09-19T12:55:53Z</time>
      </trkpt>
      <trkpt lat="49.61402" lon="4.95756">
        <ele>189.52</ele>
        <time>2018-09-19T12:56:09Z</time>
      </trkpt>
      <trkpt lat="49.61392" lon="4.95746">
        <ele>190.96</ele>
        <time>2018-09-19T12:56:25Z</time>
      </trkpt>
      <trkpt lat="49.61379" lon="4.9573">
        <ele>190</ele>
        <time>2018-09-19T12:56:40Z</time>
      </trkpt>
      <trkpt lat="49.61379" lon="4.95729">
        <ele>190</ele>
        <time>2018-09-19T12:56:41Z</time>
      </trkpt>
      <trkpt lat="49.61375" lon="4.95724">
        <ele>190.48</ele>
        <time>2018-09-19T12:56:45Z</time>
      </trkpt>
      <trkpt lat="49.61373" lon="4.95723">
        <ele>190.48</ele>
        <time>2018-09-19T12:56:47Z</time>
      </trkpt>
      <trkpt lat="49.61361" lon="4.95705">
        <ele>191.92</ele>
        <time>2018-09-19T12:57:02Z</time>
      </trkpt>
      <trkpt lat="49.61353" lon="4.95685">
        <ele>195.77</ele>
        <time>2018-09-19T12:57:17Z</time>
      </trkpt>
      <trkpt lat="49.61344" lon="4.95658">
        <ele>196.73</ele>
        <time>2018-09-19T12:57:31Z</time>
      </trkpt>
      <trkpt lat="49.61334" lon="4.95633">
        <ele>197.69</ele>
        <time>2018-09-19T12:57:47Z</time>
      </trkpt>
      <trkpt lat="49.61324" lon="4.95619">
        <ele>199.13</ele>
        <time>2018-09-19T12:57:58Z</time>
      </trkpt>
      <trkpt lat="49.61311" lon="4.95605">
        <ele>201.53</ele>
        <time>2018-09-19T12:58:13Z</time>
      </trkpt>
      <trkpt lat="49.61296" lon="4.95596">
        <ele>199.61</ele>
        <time>2018-09-19T12:58:26Z</time>
      </trkpt>
      <trkpt lat="49.61283" lon="4.95585">
        <ele>199.13</ele>
        <time>2018-09-19T12:58:38Z</time>
      </trkpt>
      <trkpt lat="49.61266" lon="4.95574">
        <ele>199.13</ele>
        <time>2018-09-19T12:58:53Z</time>
      </trkpt>
      <trkpt lat="49.6125" lon="4.95561">
        <ele>201.05</ele>
        <time>2018-09-19T12:59:07Z</time>
      </trkpt>
      <trkpt lat="49.61232" lon="4.95555">
        <ele>199.61</ele>
        <time>2018-09-19T12:59:22Z</time>
      </trkpt>
      <trkpt lat="49.61214" lon="4.9555">
        <ele>198.17</ele>
        <time>2018-09-19T12:59:37Z</time>
      </trkpt>
      <trkpt lat="49.61203" lon="4.95544">
        <ele>197.69</ele>
        <time>2018-09-19T12:59:47Z</time>
      </trkpt>
      <trkpt lat="49.61187" lon="4.95539">
        <ele>196.73</ele>
        <time>2018-09-19T13:00:02Z</time>
      </trkpt>
      <trkpt lat="49.61167" lon="4.95532">
        <ele>195.77</ele>
        <time>2018-09-19T13:00:19Z</time>
      </trkpt>
      <trkpt lat="49.6116" lon="4.9553">
        <ele>194.8</ele>
        <time>2018-09-19T13:00:25Z</time>
      </trkpt>
      <trkpt lat="49.61147" lon="4.95527">
        <ele>191.44</ele>
        <time>2018-09-19T13:00:39Z</time>
      </trkpt>
      <trkpt lat="49.61132" lon="4.95526">
        <ele>187.11</ele>
        <time>2018-09-19T13:00:54Z</time>
      </trkpt>
      <trkpt lat="49.61111" lon="4.9552">
        <ele>189.04</ele>
        <time>2018-09-19T13:01:11Z</time>
      </trkpt>
      <trkpt lat="49.61106" lon="4.95521">
        <ele>189.52</ele>
        <time>2018-09-19T13:01:15Z</time>
      </trkpt>
      <trkpt lat="49.61087" lon="4.9553">
        <ele>188.08</ele>
        <time>2018-09-19T13:01:30Z</time>
      </trkpt>
      <trkpt lat="49.61082" lon="4.95534">
        <ele>188.08</ele>
        <time>2018-09-19T13:01:35Z</time>
      </trkpt>
      <trkpt lat="49.61066" lon="4.95545">
        <ele>188.08</ele>
        <time>2018-09-19T13:01:49Z</time>
      </trkpt>
      <trkpt lat="49.61039" lon="4.95537">
        <ele>187.11</ele>
        <time>2018-09-19T13:02:09Z</time>
      </trkpt>
      <trkpt lat="49.61022" lon="4.95525">
        <ele>186.15</ele>
        <time>2018-09-19T13:02:27Z</time>
      </trkpt>
      <trkpt lat="49.61004" lon="4.95511">
        <ele>186.63</ele>
        <time>2018-09-19T13:02:43Z</time>
      </trkpt>
      <trkpt lat="49.60983" lon="4.95499">
        <ele>185.19</ele>
        <time>2018-09-19T13:03:03Z</time>
      </trkpt>
      <trkpt lat="49.6096" lon="4.95486">
        <ele>185.19</ele>
        <time>2018-09-19T13:03:23Z</time>
      </trkpt>
      <trkpt lat="49.60938" lon="4.95476">
        <ele>184.23</ele>
        <time>2018-09-19T13:03:41Z</time>
      </trkpt>
      <trkpt lat="49.60917" lon="4.95468">
        <ele>185.67</ele>
        <time>2018-09-19T13:04:01Z</time>
      </trkpt>
      <trkpt lat="49.60892" lon="4.95454">
        <ele>184.23</ele>
        <time>2018-09-19T13:04:21Z</time>
      </trkpt>
      <trkpt lat="49.60872" lon="4.95448">
        <ele>181.83</ele>
        <time>2018-09-19T13:04:39Z</time>
      </trkpt>
      <trkpt lat="49.60854" lon="4.95441">
        <ele>182.31</ele>
        <time>2018-09-19T13:04:55Z</time>
      </trkpt>
      <trkpt lat="49.60831" lon="4.95425">
        <ele>184.23</ele>
        <time>2018-09-19T13:05:14Z</time>
      </trkpt>
      <trkpt lat="49.60814" lon="4.95415">
        <ele>186.15</ele>
        <time>2018-09-19T13:05:30Z</time>
      </trkpt>
      <trkpt lat="49.60796" lon="4.95411">
        <ele>186.15</ele>
        <time>2018-09-19T13:05:45Z</time>
      </trkpt>
      <trkpt lat="49.60792" lon="4.9541">
        <ele>185.67</ele>
        <time>2018-09-19T13:05:50Z</time>
      </trkpt>
      <trkpt lat="49.60771" lon="4.95407">
        <ele>184.71</ele>
        <time>2018-09-19T13:06:08Z</time>
      </trkpt>
      <trkpt lat="49.60756" lon="4.95408">
        <ele>183.27</ele>
        <time>2018-09-19T13:06:21Z</time>
      </trkpt>
      <trkpt lat="49.60747" lon="4.95407">
        <ele>183.27</ele>
        <time>2018-09-19T13:06:29Z</time>
      </trkpt>
      <trkpt lat="49.60729" lon="4.95407">
        <ele>182.31</ele>
        <time>2018-09-19T13:06:44Z</time>
      </trkpt>
      <trkpt lat="49.60712" lon="4.95411">
        <ele>184.71</ele>
        <time>2018-09-19T13:06:58Z</time>
      </trkpt>
      <trkpt lat="49.60696" lon="4.95416">
        <ele>184.23</ele>
        <time>2018-09-19T13:07:13Z</time>
      </trkpt>
      <trkpt lat="49.60678" lon="4.95419">
        <ele>183.27</ele>
        <time>2018-09-19T13:07:29Z</time>
      </trkpt>
      <trkpt lat="49.60674" lon="4.95419">
        <ele>183.27</ele>
        <time>2018-09-19T13:07:32Z</time>
      </trkpt>
      <trkpt lat="49.60654" lon="4.95425">
        <ele>181.83</ele>
        <time>2018-09-19T13:07:50Z</time>
      </trkpt>
      <trkpt lat="49.60638" lon="4.9543">
        <ele>182.79</ele>
        <time>2018-09-19T13:08:05Z</time>
      </trkpt>
      <trkpt lat="49.60624" lon="4.95436">
        <ele>184.71</ele>
        <time>2018-09-19T13:08:18Z</time>
      </trkpt>
      <trkpt lat="49.60608" lon="4.95439">
        <ele>186.63</ele>
        <time>2018-09-19T13:08:31Z</time>
      </trkpt>
      <trkpt lat="49.60592" lon="4.9544">
        <ele>189.04</ele>
        <time>2018-09-19T13:08:46Z</time>
      </trkpt>
      <trkpt lat="49.60584" lon="4.95441">
        <ele>190.48</ele>
        <time>2018-09-19T13:08:53Z</time>
      </trkpt>
      <trkpt lat="49.60568" lon="4.95445">
        <ele>190.96</ele>
        <time>2018-09-19T13:09:07Z</time>
      </trkpt>
      <trkpt lat="49.60554" lon="4.9545">
        <ele>191.92</ele>
        <time>2018-09-19T13:09:21Z</time>
      </trkpt>
      <trkpt lat="49.60538" lon="4.95452">
        <ele>193.36</ele>
        <time>2018-09-19T13:09:35Z</time>
      </trkpt>
      <trkpt lat="49.6053" lon="4.95459">
        <ele>193.36</ele>
        <time>2018-09-19T13:09:44Z</time>
      </trkpt>
      <trkpt lat="49.6052" lon="4.95473">
        <ele>192.88</ele>
        <time>2018-09-19T13:09:56Z</time>
      </trkpt>
      <trkpt lat="49.6051" lon="4.95482">
        <ele>192.88</ele>
        <time>2018-09-19T13:10:05Z</time>
      </trkpt>
      <trkpt lat="49.60507" lon="4.95487">
        <ele>191.44</ele>
        <time>2018-09-19T13:10:10Z</time>
      </trkpt>
      <trkpt lat="49.60491" lon="4.955">
        <ele>189.04</ele>
        <time>2018-09-19T13:10:26Z</time>
      </trkpt>
      <trkpt lat="49.60485" lon="4.95501">
        <ele>188.56</ele>
        <time>2018-09-19T13:10:30Z</time>
      </trkpt>
      <trkpt lat="49.6047" lon="4.95512">
        <ele>188.08</ele>
        <time>2018-09-19T13:10:45Z</time>
      </trkpt>
      <trkpt lat="49.60461" lon="4.95516">
        <ele>188.56</ele>
        <time>2018-09-19T13:10:54Z</time>
      </trkpt>
      <trkpt lat="49.60443" lon="4.95528">
        <ele>187.59</ele>
        <time>2018-09-19T13:11:11Z</time>
      </trkpt>
      <trkpt lat="49.6043" lon="4.95533">
        <ele>187.11</ele>
        <time>2018-09-19T13:11:23Z</time>
      </trkpt>
      <trkpt lat="49.60424" lon="4.95539">
        <ele>186.15</ele>
        <time>2018-09-19T13:11:30Z</time>
      </trkpt>
      <trkpt lat="49.60409" lon="4.95542">
        <ele>186.15</ele>
        <time>2018-09-19T13:11:44Z</time>
      </trkpt>
      <trkpt lat="49.60392" lon="4.95542">
        <ele>187.11</ele>
        <time>2018-09-19T13:11:58Z</time>
      </trkpt>
      <trkpt lat="49.60375" lon="4.95544">
        <ele>188.56</ele>
        <time>2018-09-19T13:12:14Z</time>
      </trkpt>
      <trkpt lat="49.60366" lon="4.95545">
        <ele>190</ele>
        <time>2018-09-19T13:12:22Z</time>
      </trkpt>
      <trkpt lat="49.60348" lon="4.95539">
        <ele>192.4</ele>
        <time>2018-09-19T13:12:38Z</time>
      </trkpt>
      <trkpt lat="49.60332" lon="4.9553">
        <ele>190</ele>
        <time>2018-09-19T13:12:54Z</time>
      </trkpt>
      <trkpt lat="49.60315" lon="4.95528">
        <ele>188.08</ele>
        <time>2018-09-19T13:13:10Z</time>
      </trkpt>
      <trkpt lat="49.60296" lon="4.95541">
        <ele>190</ele>
        <time>2018-09-19T13:13:28Z</time>
      </trkpt>
      <trkpt lat="49.60289" lon="4.95544">
        <ele>190.96</ele>
        <time>2018-09-19T13:13:35Z</time>
      </trkpt>
      <trkpt lat="49.60286" lon="4.95546">
        <ele>190.96</ele>
        <time>2018-09-19T13:13:38Z</time>
      </trkpt>
      <trkpt lat="49.6027" lon="4.95534">
        <ele>191.44</ele>
        <time>2018-09-19T13:13:55Z</time>
      </trkpt>
      <trkpt lat="49.60256" lon="4.95524">
        <ele>191.44</ele>
        <time>2018-09-19T13:14:09Z</time>
      </trkpt>
      <trkpt lat="49.6024" lon="4.95513">
        <ele>193.36</ele>
        <time>2018-09-19T13:14:24Z</time>
      </trkpt>
      <trkpt lat="49.60233" lon="4.95511">
        <ele>193.84</ele>
        <time>2018-09-19T13:14:29Z</time>
      </trkpt>
      <trkpt lat="49.60214" lon="4.95509">
        <ele>193.36</ele>
        <time>2018-09-19T13:14:45Z</time>
      </trkpt>
      <trkpt lat="49.60199" lon="4.95511">
        <ele>191.92</ele>
        <time>2018-09-19T13:14:59Z</time>
      </trkpt>
      <trkpt lat="49.60185" lon="4.95513">
        <ele>190.96</ele>
        <time>2018-09-19T13:15:12Z</time>
      </trkpt>
      <trkpt lat="49.60169" lon="4.95517">
        <ele>190.48</ele>
        <time>2018-09-19T13:15:27Z</time>
      </trkpt>
      <trkpt lat="49.60152" lon="4.95523">
        <ele>190.96</ele>
        <time>2018-09-19T13:15:42Z</time>
      </trkpt>
      <trkpt lat="49.60135" lon="4.95527">
        <ele>190.48</ele>
        <time>2018-09-19T13:15:58Z</time>
      </trkpt>
      <trkpt lat="49.60121" lon="4.95537">
        <ele>188.08</ele>
        <time>2018-09-19T13:16:13Z</time>
      </trkpt>
      <trkpt lat="49.60106" lon="4.95541">
        <ele>188.56</ele>
        <time>2018-09-19T13:16:27Z</time>
      </trkpt>
      <trkpt lat="49.60102" lon="4.95543">
        <ele>188.56</ele>
        <time>2018-09-19T13:16:32Z</time>
      </trkpt>
      <trkpt lat="49.60094" lon="4.95548">
        <ele>190</ele>
        <time>2018-09-19T13:16:46Z</time>
      </trkpt>
      <trkpt lat="49.60094" lon="4.95551">
        <ele>190.48</ele>
        <time>2018-09-19T13:17:02Z</time>
      </trkpt>
      <trkpt lat="49.60093" lon="4.9555">
        <ele>190.48</ele>
        <time>2018-09-19T13:17:10Z</time>
      </trkpt>
      <trkpt lat="49.60091" lon="4.9555">
        <ele>190</ele>
        <time>2018-09-19T13:17:21Z</time>
      </trkpt>
      <trkpt lat="49.60087" lon="4.95551">
        <ele>189.52</ele>
        <time>2018-09-19T13:17:25Z</time>
      </trkpt>
      <trkpt lat="49.60078" lon="4.9555">
        <ele>188.08</ele>
        <time>2018-09-19T13:17:35Z</time>
      </trkpt>
      <trkpt lat="49.60055" lon="4.95538">
        <ele>187.11</ele>
        <time>2018-09-19T13:17:55Z</time>
      </trkpt>
      <trkpt lat="49.60032" lon="4.95525">
        <ele>187.59</ele>
        <time>2018-09-19T13:18:15Z</time>
      </trkpt>
      <trkpt lat="49.60025" lon="4.9552">
        <ele>188.08</ele>
        <time>2018-09-19T13:18:23Z</time>
      </trkpt>
      <trkpt lat="49.60017" lon="4.95516">
        <ele>187.59</ele>
        <time>2018-09-19T13:18:30Z</time>
      </trkpt>
      <trkpt lat="49.59998" lon="4.95506">
        <ele>184.71</ele>
        <time>2018-09-19T13:18:49Z</time>
      </trkpt>
      <trkpt lat="49.59974" lon="4.95492">
        <ele>187.11</ele>
        <time>2018-09-19T13:19:10Z</time>
      </trkpt>
      <trkpt lat="49.59957" lon="4.95481">
        <ele>185.67</ele>
        <time>2018-09-19T13:19:27Z</time>
      </trkpt>
      <trkpt lat="49.59937" lon="4.95466">
        <ele>185.67</ele>
        <time>2018-09-19T13:19:46Z</time>
      </trkpt>
      <trkpt lat="49.59916" lon="4.95461">
        <ele>185.67</ele>
        <time>2018-09-19T13:20:03Z</time>
      </trkpt>
      <trkpt lat="49.59899" lon="4.95467">
        <ele>185.19</ele>
        <time>2018-09-19T13:20:18Z</time>
      </trkpt>
      <trkpt lat="49.59885" lon="4.95475">
        <ele>185.19</ele>
        <time>2018-09-19T13:20:31Z</time>
      </trkpt>
      <trkpt lat="49.59885" lon="4.95487">
        <ele>189.04</ele>
        <time>2018-09-19T13:20:47Z</time>
      </trkpt>
      <trkpt lat="49.59892" lon="4.95513">
        <ele>190</ele>
        <time>2018-09-19T13:21:03Z</time>
      </trkpt>
      <trkpt lat="49.59904" lon="4.95534">
        <ele>188.08</ele>
        <time>2018-09-19T13:21:19Z</time>
      </trkpt>
      <trkpt lat="49.59913" lon="4.95552">
        <ele>186.15</ele>
        <time>2018-09-19T13:21:32Z</time>
      </trkpt>
      <trkpt lat="49.59924" lon="4.95567">
        <ele>186.15</ele>
        <time>2018-09-19T13:21:45Z</time>
      </trkpt>
      <trkpt lat="49.59933" lon="4.95579">
        <ele>188.56</ele>
        <time>2018-09-19T13:21:58Z</time>
      </trkpt>
      <trkpt lat="49.59946" lon="4.95596">
        <ele>189.04</ele>
        <time>2018-09-19T13:22:13Z</time>
      </trkpt>
      <trkpt lat="49.59951" lon="4.95605">
        <ele>187.59</ele>
        <time>2018-09-19T13:22:22Z</time>
      </trkpt>
      <trkpt lat="49.59962" lon="4.95622">
        <ele>185.67</ele>
        <time>2018-09-19T13:22:37Z</time>
      </trkpt>
      <trkpt lat="49.59971" lon="4.95637">
        <ele>188.56</ele>
        <time>2018-09-19T13:22:48Z</time>
      </trkpt>
      <trkpt lat="49.59978" lon="4.95649">
        <ele>190.96</ele>
        <time>2018-09-19T13:22:58Z</time>
      </trkpt>
      <trkpt lat="49.59989" lon="4.95669">
        <ele>196.25</ele>
        <time>2018-09-19T13:23:14Z</time>
      </trkpt>
      <trkpt lat="49.59996" lon="4.95684">
        <ele>198.17</ele>
        <time>2018-09-19T13:23:25Z</time>
      </trkpt>
      <trkpt lat="49.60009" lon="4.95704">
        <ele>201.05</ele>
        <time>2018-09-19T13:23:41Z</time>
      </trkpt>
      <trkpt lat="49.60013" lon="4.95713">
        <ele>201.53</ele>
        <time>2018-09-19T13:23:49Z</time>
      </trkpt>
      <trkpt lat="49.60026" lon="4.95726">
        <ele>201.05</ele>
        <time>2018-09-19T13:24:02Z</time>
      </trkpt>
      <trkpt lat="49.60048" lon="4.95744">
        <ele>200.57</ele>
        <time>2018-09-19T13:24:21Z</time>
      </trkpt>
      <trkpt lat="49.60058" lon="4.95753">
        <ele>200.09</ele>
        <time>2018-09-19T13:24:32Z</time>
      </trkpt>
      <trkpt lat="49.6006" lon="4.95755">
        <ele>200.57</ele>
        <time>2018-09-19T13:24:34Z</time>
      </trkpt>
      <trkpt lat="49.60076" lon="4.95764">
        <ele>202.49</ele>
        <time>2018-09-19T13:24:50Z</time>
      </trkpt>
      <trkpt lat="49.60094" lon="4.95772">
        <ele>202.98</ele>
        <time>2018-09-19T13:25:06Z</time>
      </trkpt>
      <trkpt lat="49.60103" lon="4.95779">
        <ele>202.49</ele>
        <time>2018-09-19T13:25:14Z</time>
      </trkpt>
      <trkpt lat="49.60123" lon="4.95793">
        <ele>203.46</ele>
        <time>2018-09-19T13:25:33Z</time>
      </trkpt>
      <trkpt lat="49.60133" lon="4.95795">
        <ele>203.94</ele>
        <time>2018-09-19T13:25:43Z</time>
      </trkpt>
      <trkpt lat="49.6015" lon="4.95805">
        <ele>206.82</ele>
        <time>2018-09-19T13:25:59Z</time>
      </trkpt>
      <trkpt lat="49.6017" lon="4.95806">
        <ele>208.26</ele>
        <time>2018-09-19T13:26:14Z</time>
      </trkpt>
      <trkpt lat="49.60179" lon="4.95793">
        <ele>207.78</ele>
        <time>2018-09-19T13:26:29Z</time>
      </trkpt>
      <trkpt lat="49.60182" lon="4.95778">
        <ele>206.34</ele>
        <time>2018-09-19T13:26:36Z</time>
      </trkpt>
      <trkpt lat="49.60192" lon="4.95758">
        <ele>205.38</ele>
        <time>2018-09-19T13:26:45Z</time>
      </trkpt>
      <trkpt lat="49.60198" lon="4.95754">
        <ele>202.98</ele>
        <time>2018-09-19T13:26:54Z</time>
      </trkpt>
      <trkpt lat="49.60209" lon="4.95746">
        <ele>203.46</ele>
        <time>2018-09-19T13:27:08Z</time>
      </trkpt>
      <trkpt lat="49.60226" lon="4.95749">
        <ele>201.53</ele>
        <time>2018-09-19T13:27:22Z</time>
      </trkpt>
      <trkpt lat="49.60235" lon="4.9575">
        <ele>199.13</ele>
        <time>2018-09-19T13:27:27Z</time>
      </trkpt>
      <trkpt lat="49.6024" lon="4.95746">
        <ele>198.17</ele>
        <time>2018-09-19T13:27:32Z</time>
      </trkpt>
      <trkpt lat="49.60251" lon="4.95742">
        <ele>195.28</ele>
        <time>2018-09-19T13:27:42Z</time>
      </trkpt>
      <trkpt lat="49.60257" lon="4.95727">
        <ele>192.4</ele>
        <time>2018-09-19T13:27:51Z</time>
      </trkpt>
      <trkpt lat="49.60275" lon="4.95722">
        <ele>191.44</ele>
        <time>2018-09-19T13:28:10Z</time>
      </trkpt>
      <trkpt lat="49.60294" lon="4.95724">
        <ele>194.8</ele>
        <time>2018-09-19T13:28:29Z</time>
      </trkpt>
      <trkpt lat="49.60311" lon="4.95726">
        <ele>197.69</ele>
        <time>2018-09-19T13:28:46Z</time>
      </trkpt>
      <trkpt lat="49.60317" lon="4.95723">
        <ele>196.73</ele>
        <time>2018-09-19T13:28:50Z</time>
      </trkpt>
      <trkpt lat="49.60324" lon="4.957">
        <ele>194.8</ele>
        <time>2018-09-19T13:29:03Z</time>
      </trkpt>
      <trkpt lat="49.6033" lon="4.9568">
        <ele>195.28</ele>
        <time>2018-09-19T13:29:18Z</time>
      </trkpt>
      <trkpt lat="49.60333" lon="4.9568">
        <ele>195.77</ele>
        <time>2018-09-19T13:29:21Z</time>
      </trkpt>
      <trkpt lat="49.60336" lon="4.95681">
        <ele>195.77</ele>
        <time>2018-09-19T13:29:24Z</time>
      </trkpt>
      <trkpt lat="49.60354" lon="4.95699">
        <ele>190.96</ele>
        <time>2018-09-19T13:29:40Z</time>
      </trkpt>
      <trkpt lat="49.60371" lon="4.9571">
        <ele>190.48</ele>
        <time>2018-09-19T13:29:57Z</time>
      </trkpt>
      <trkpt lat="49.60388" lon="4.95718">
        <ele>191.44</ele>
        <time>2018-09-19T13:30:13Z</time>
      </trkpt>
      <trkpt lat="49.60395" lon="4.95721">
        <ele>190.96</ele>
        <time>2018-09-19T13:30:20Z</time>
      </trkpt>
      <trkpt lat="49.60419" lon="4.95715">
        <ele>189.04</ele>
        <time>2018-09-19T13:30:38Z</time>
      </trkpt>
      <trkpt lat="49.60436" lon="4.95704">
        <ele>187.59</ele>
        <time>2018-09-19T13:30:55Z</time>
      </trkpt>
      <trkpt lat="49.60439" lon="4.95701">
        <ele>187.59</ele>
        <time>2018-09-19T13:30:57Z</time>
      </trkpt>
      <trkpt lat="49.60443" lon="4.95697">
        <ele>187.11</ele>
        <time>2018-09-19T13:31:01Z</time>
      </trkpt>
      <trkpt lat="49.60457" lon="4.9568">
        <ele>184.71</ele>
        <time>2018-09-19T13:31:17Z</time>
      </trkpt>
      <trkpt lat="49.60473" lon="4.95655">
        <ele>183.75</ele>
        <time>2018-09-19T13:31:36Z</time>
      </trkpt>
      <trkpt lat="49.60482" lon="4.95642">
        <ele>183.27</ele>
        <time>2018-09-19T13:31:49Z</time>
      </trkpt>
      <trkpt lat="49.60497" lon="4.95632">
        <ele>182.31</ele>
        <time>2018-09-19T13:32:04Z</time>
      </trkpt>
      <trkpt lat="49.60511" lon="4.95622">
        <ele>181.35</ele>
        <time>2018-09-19T13:32:19Z</time>
      </trkpt>
      <trkpt lat="49.60528" lon="4.95616">
        <ele>182.31</ele>
        <time>2018-09-19T13:32:35Z</time>
      </trkpt>
      <trkpt lat="49.60539" lon="4.95608">
        <ele>183.27</ele>
        <time>2018-09-19T13:32:45Z</time>
      </trkpt>
      <trkpt lat="49.60554" lon="4.956">
        <ele>184.23</ele>
        <time>2018-09-19T13:32:58Z</time>
      </trkpt>
      <trkpt lat="49.60573" lon="4.95584">
        <ele>182.79</ele>
        <time>2018-09-19T13:33:16Z</time>
      </trkpt>
      <trkpt lat="49.60589" lon="4.95572">
        <ele>180.87</ele>
        <time>2018-09-19T13:33:32Z</time>
      </trkpt>
      <trkpt lat="49.6061" lon="4.95562">
        <ele>181.83</ele>
        <time>2018-09-19T13:33:52Z</time>
      </trkpt>
      <trkpt lat="49.60613" lon="4.95559">
        <ele>181.83</ele>
        <time>2018-09-19T13:33:55Z</time>
      </trkpt>
      <trkpt lat="49.60618" lon="4.95554">
        <ele>181.35</ele>
        <time>2018-09-19T13:34:00Z</time>
      </trkpt>
      <trkpt lat="49.60639" lon="4.95537">
        <ele>182.31</ele>
        <time>2018-09-19T13:34:20Z</time>
      </trkpt>
      <trkpt lat="49.60657" lon="4.95517">
        <ele>183.75</ele>
        <time>2018-09-19T13:34:39Z</time>
      </trkpt>
      <trkpt lat="49.60677" lon="4.955">
        <ele>183.75</ele>
        <time>2018-09-19T13:34:59Z</time>
      </trkpt>
      <trkpt lat="49.60688" lon="4.95491">
        <ele>183.75</ele>
        <time>2018-09-19T13:35:15Z</time>
      </trkpt>
      <trkpt lat="49.60702" lon="4.95481">
        <ele>182.31</ele>
        <time>2018-09-19T13:35:32Z</time>
      </trkpt>
      <trkpt lat="49.60723" lon="4.95471">
        <ele>181.83</ele>
        <time>2018-09-19T13:35:51Z</time>
      </trkpt>
      <trkpt lat="49.60747" lon="4.9546">
        <ele>180.38</ele>
        <time>2018-09-19T13:36:12Z</time>
      </trkpt>
      <trkpt lat="49.60768" lon="4.95453">
        <ele>180.38</ele>
        <time>2018-09-19T13:36:32Z</time>
      </trkpt>
      <trkpt lat="49.60791" lon="4.95451">
        <ele>179.9</ele>
        <time>2018-09-19T13:36:51Z</time>
      </trkpt>
      <trkpt lat="49.60812" lon="4.95452">
        <ele>179.9</ele>
        <time>2018-09-19T13:37:10Z</time>
      </trkpt>
      <trkpt lat="49.60833" lon="4.95452">
        <ele>181.35</ele>
        <time>2018-09-19T13:37:29Z</time>
      </trkpt>
      <trkpt lat="49.60842" lon="4.95454">
        <ele>182.31</ele>
        <time>2018-09-19T13:37:39Z</time>
      </trkpt>
      <trkpt lat="49.60857" lon="4.95462">
        <ele>185.19</ele>
        <time>2018-09-19T13:37:56Z</time>
      </trkpt>
      <trkpt lat="49.60858" lon="4.95462">
        <ele>185.19</ele>
        <time>2018-09-19T13:37:57Z</time>
      </trkpt>
      <trkpt lat="49.60874" lon="4.95468">
        <ele>185.67</ele>
        <time>2018-09-19T13:38:12Z</time>
      </trkpt>
      <trkpt lat="49.60893" lon="4.95477">
        <ele>184.71</ele>
        <time>2018-09-19T13:38:29Z</time>
      </trkpt>
      <trkpt lat="49.6091" lon="4.95485">
        <ele>182.79</ele>
        <time>2018-09-19T13:38:46Z</time>
      </trkpt>
      <trkpt lat="49.60927" lon="4.95493">
        <ele>179.9</ele>
        <time>2018-09-19T13:39:00Z</time>
      </trkpt>
      <trkpt lat="49.60944" lon="4.95508">
        <ele>177.98</ele>
        <time>2018-09-19T13:39:20Z</time>
      </trkpt>
      <trkpt lat="49.60957" lon="4.95516">
        <ele>177.02</ele>
        <time>2018-09-19T13:39:41Z</time>
      </trkpt>
      <trkpt lat="49.60959" lon="4.95514">
        <ele>181.35</ele>
        <time>2018-09-19T13:40:05Z</time>
      </trkpt>
      <trkpt lat="49.60959" lon="4.95514">
        <ele>182.31</ele>
        <time>2018-09-19T13:40:20Z</time>
      </trkpt>
      <trkpt lat="49.60959" lon="4.95515">
        <ele>181.83</ele>
        <time>2018-09-19T13:40:49Z</time>
      </trkpt>
      <trkpt lat="49.6096" lon="4.95512">
        <ele>181.35</ele>
        <time>2018-09-19T13:41:16Z</time>
      </trkpt>
      <trkpt lat="49.60961" lon="4.95513">
        <ele>181.35</ele>
        <time>2018-09-19T13:41:46Z</time>
      </trkpt>
      <trkpt lat="49.60963" lon="4.95515">
        <ele>180.87</ele>
        <time>2018-09-19T13:42:15Z</time>
      </trkpt>
      <trkpt lat="49.60964" lon="4.95516">
        <ele>179.9</ele>
        <time>2018-09-19T13:42:45Z</time>
      </trkpt>
      <trkpt lat="49.60965" lon="4.95517">
        <ele>179.42</ele>
        <time>2018-09-19T13:43:13Z</time>
      </trkpt>
      <trkpt lat="49.60964" lon="4.95517">
        <ele>177.02</ele>
        <time>2018-09-19T13:43:40Z</time>
      </trkpt>
      <trkpt lat="49.60963" lon="4.95515">
        <ele>176.06</ele>
        <time>2018-09-19T13:44:10Z</time>
      </trkpt>
      <trkpt lat="49.60962" lon="4.95512">
        <ele>175.58</ele>
        <time>2018-09-19T13:44:41Z</time>
      </trkpt>
      <trkpt lat="49.60963" lon="4.95512">
        <ele>175.58</ele>
        <time>2018-09-19T13:45:09Z</time>
      </trkpt>
      <trkpt lat="49.60963" lon="4.95513">
        <ele>175.58</ele>
        <time>2018-09-19T13:45:36Z</time>
      </trkpt>
      <trkpt lat="49.60963" lon="4.95512">
        <ele>175.1</ele>
        <time>2018-09-19T13:46:07Z</time>
      </trkpt>
      <trkpt lat="49.60963" lon="4.95511">
        <ele>174.62</ele>
        <time>2018-09-19T13:46:45Z</time>
      </trkpt>
      <trkpt lat="49.60963" lon="4.9551">
        <ele>174.62</ele>
        <time>2018-09-19T13:47:14Z</time>
      </trkpt>
      <trkpt lat="49.60963" lon="4.95508">
        <ele>175.1</ele>
        <time>2018-09-19T13:47:49Z</time>
      </trkpt>
      <trkpt lat="49.60963" lon="4.95506">
        <ele>174.62</ele>
        <time>2018-09-19T13:48:19Z</time>
      </trkpt>
      <trkpt lat="49.60963" lon="4.95505">
        <ele>174.62</ele>
        <time>2018-09-19T13:48:50Z</time>
      </trkpt>
      <trkpt lat="49.60963" lon="4.95505">
        <ele>174.14</ele>
        <time>2018-09-19T13:49:20Z</time>
      </trkpt>
      <trkpt lat="49.60963" lon="4.95506">
        <ele>174.14</ele>
        <time>2018-09-19T13:49:53Z</time>
      </trkpt>
      <trkpt lat="49.60963" lon="4.95506">
        <ele>174.14</ele>
        <time>2018-09-19T13:50:21Z</time>
      </trkpt>
      <trkpt lat="49.60963" lon="4.95506">
        <ele>174.14</ele>
        <time>2018-09-19T13:50:50Z</time>
      </trkpt>
      <trkpt lat="49.60963" lon="4.95505">
        <ele>174.14</ele>
        <time>2018-09-19T13:51:19Z</time>
      </trkpt>
      <trkpt lat="49.60963" lon="4.95505">
        <ele>174.14</ele>
        <time>2018-09-19T13:51:47Z</time>
      </trkpt>
      <trkpt lat="49.60963" lon="4.95505">
        <ele>173.66</ele>
        <time>2018-09-19T13:52:08Z</time>
      </trkpt>
      <trkpt lat="49.60963" lon="4.95508">
        <ele>174.62</ele>
        <time>2018-09-19T13:52:31Z</time>
      </trkpt>
      <trkpt lat="49.60971" lon="4.95514">
        <ele>173.66</ele>
        <time>2018-09-19T13:52:45Z</time>
      </trkpt>
      <trkpt lat="49.60984" lon="4.95522">
        <ele>172.21</ele>
        <time>2018-09-19T13:52:59Z</time>
      </trkpt>
      <trkpt lat="49.60999" lon="4.95533">
        <ele>171.25</ele>
        <time>2018-09-19T13:53:15Z</time>
      </trkpt>
      <trkpt lat="49.61013" lon="4.95543">
        <ele>171.73</ele>
        <time>2018-09-19T13:53:30Z</time>
      </trkpt>
      <trkpt lat="49.6103" lon="4.95554">
        <ele>173.66</ele>
        <time>2018-09-19T13:53:47Z</time>
      </trkpt>
      <trkpt lat="49.61046" lon="4.95563">
        <ele>172.69</ele>
        <time>2018-09-19T13:54:04Z</time>
      </trkpt>
      <trkpt lat="49.61063" lon="4.95574">
        <ele>173.66</ele>
        <time>2018-09-19T13:54:21Z</time>
      </trkpt>
      <trkpt lat="49.61082" lon="4.95585">
        <ele>174.14</ele>
        <time>2018-09-19T13:54:39Z</time>
      </trkpt>
      <trkpt lat="49.61096" lon="4.9559">
        <ele>171.25</ele>
        <time>2018-09-19T13:54:51Z</time>
      </trkpt>
      <trkpt lat="49.61108" lon="4.95597">
        <ele>169.81</ele>
        <time>2018-09-19T13:55:04Z</time>
      </trkpt>
      <trkpt lat="49.6111" lon="4.95601">
        <ele>169.33</ele>
        <time>2018-09-19T13:55:07Z</time>
      </trkpt>
      <trkpt lat="49.61113" lon="4.95611">
        <ele>170.29</ele>
        <time>2018-09-19T13:55:21Z</time>
      </trkpt>
      <trkpt lat="49.61113" lon="4.95617">
        <ele>173.17</ele>
        <time>2018-09-19T13:55:50Z</time>
      </trkpt>
      <trkpt lat="49.61114" lon="4.9562">
        <ele>174.14</ele>
        <time>2018-09-19T13:56:18Z</time>
      </trkpt>
      <trkpt lat="49.61114" lon="4.95611">
        <ele>175.1</ele>
        <time>2018-09-19T13:56:33Z</time>
      </trkpt>
      <trkpt lat="49.61118" lon="4.95605">
        <ele>175.58</ele>
        <time>2018-09-19T13:56:41Z</time>
      </trkpt>
      <trkpt lat="49.61139" lon="4.95615">
        <ele>175.1</ele>
        <time>2018-09-19T13:56:59Z</time>
      </trkpt>
      <trkpt lat="49.61157" lon="4.95628">
        <ele>176.54</ele>
        <time>2018-09-19T13:57:16Z</time>
      </trkpt>
      <trkpt lat="49.61172" lon="4.95638">
        <ele>175.58</ele>
        <time>2018-09-19T13:57:30Z</time>
      </trkpt>
      <trkpt lat="49.61193" lon="4.95651">
        <ele>175.58</ele>
        <time>2018-09-19T13:57:50Z</time>
      </trkpt>
      <trkpt lat="49.61199" lon="4.95655">
        <ele>176.06</ele>
        <time>2018-09-19T13:57:57Z</time>
      </trkpt>
      <trkpt lat="49.61219" lon="4.95667">
        <ele>176.54</ele>
        <time>2018-09-19T13:58:15Z</time>
      </trkpt>
      <trkpt lat="49.61229" lon="4.95675">
        <ele>177.02</ele>
        <time>2018-09-19T13:58:25Z</time>
      </trkpt>
      <trkpt lat="49.61246" lon="4.95687">
        <ele>173.66</ele>
        <time>2018-09-19T13:58:43Z</time>
      </trkpt>
      <trkpt lat="49.61263" lon="4.95697">
        <ele>171.25</ele>
        <time>2018-09-19T13:58:59Z</time>
      </trkpt>
      <trkpt lat="49.61271" lon="4.95702">
        <ele>171.25</ele>
        <time>2018-09-19T13:59:05Z</time>
      </trkpt>
      <trkpt lat="49.61284" lon="4.95707">
        <ele>170.29</ele>
        <time>2018-09-19T13:59:17Z</time>
      </trkpt>
      <trkpt lat="49.613" lon="4.95718">
        <ele>167.41</ele>
        <time>2018-09-19T13:59:32Z</time>
      </trkpt>
      <trkpt lat="49.61308" lon="4.95726">
        <ele>167.89</ele>
        <time>2018-09-19T13:59:39Z</time>
      </trkpt>
      <trkpt lat="49.6131" lon="4.95728">
        <ele>167.89</ele>
        <time>2018-09-19T13:59:41Z</time>
      </trkpt>
      <trkpt lat="49.61324" lon="4.95741">
        <ele>168.37</ele>
        <time>2018-09-19T13:59:56Z</time>
      </trkpt>
      <trkpt lat="49.61329" lon="4.95746">
        <ele>167.89</ele>
        <time>2018-09-19T14:00:00Z</time>
      </trkpt>
      <trkpt lat="49.6134" lon="4.95759">
        <ele>166.93</ele>
        <time>2018-09-19T14:00:14Z</time>
      </trkpt>
      <trkpt lat="49.61352" lon="4.95779">
        <ele>167.41</ele>
        <time>2018-09-19T14:00:28Z</time>
      </trkpt>
      <trkpt lat="49.61368" lon="4.95801">
        <ele>168.37</ele>
        <time>2018-09-19T14:00:46Z</time>
      </trkpt>
      <trkpt lat="49.6138" lon="4.95822">
        <ele>169.33</ele>
        <time>2018-09-19T14:01:01Z</time>
      </trkpt>
      <trkpt lat="49.61393" lon="4.95842">
        <ele>170.29</ele>
        <time>2018-09-19T14:01:16Z</time>
      </trkpt>
      <trkpt lat="49.61408" lon="4.95863">
        <ele>172.21</ele>
        <time>2018-09-19T14:01:33Z</time>
      </trkpt>
      <trkpt lat="49.61423" lon="4.95884">
        <ele>170.77</ele>
        <time>2018-09-19T14:01:51Z</time>
      </trkpt>
      <trkpt lat="49.61434" lon="4.95901">
        <ele>170.29</ele>
        <time>2018-09-19T14:02:05Z</time>
      </trkpt>
      <trkpt lat="49.61445" lon="4.95913">
        <ele>168.85</ele>
        <time>2018-09-19T14:02:19Z</time>
      </trkpt>
      <trkpt lat="49.61458" lon="4.95924">
        <ele>166.93</ele>
        <time>2018-09-19T14:02:33Z</time>
      </trkpt>
      <trkpt lat="49.61461" lon="4.95928">
        <ele>166.93</ele>
        <time>2018-09-19T14:02:36Z</time>
      </trkpt>
      <trkpt lat="49.61476" lon="4.95945">
        <ele>166.93</ele>
        <time>2018-09-19T14:02:51Z</time>
      </trkpt>
      <trkpt lat="49.61489" lon="4.95959">
        <ele>168.85</ele>
        <time>2018-09-19T14:03:06Z</time>
      </trkpt>
      <trkpt lat="49.61503" lon="4.95972">
        <ele>169.33</ele>
        <time>2018-09-19T14:03:20Z</time>
      </trkpt>
      <trkpt lat="49.61519" lon="4.95983">
        <ele>169.33</ele>
        <time>2018-09-19T14:03:36Z</time>
      </trkpt>
      <trkpt lat="49.6154" lon="4.95995">
        <ele>169.81</ele>
        <time>2018-09-19T14:03:55Z</time>
      </trkpt>
      <trkpt lat="49.61559" lon="4.96005">
        <ele>170.29</ele>
        <time>2018-09-19T14:04:11Z</time>
      </trkpt>
      <trkpt lat="49.61568" lon="4.96009">
        <ele>169.33</ele>
        <time>2018-09-19T14:04:19Z</time>
      </trkpt>
      <trkpt lat="49.61573" lon="4.96008">
        <ele>167.89</ele>
        <time>2018-09-19T14:04:23Z</time>
      </trkpt>
      <trkpt lat="49.61584" lon="4.96008">
        <ele>166.93</ele>
        <time>2018-09-19T14:04:34Z</time>
      </trkpt>
      <trkpt lat="49.61606" lon="4.96015">
        <ele>166.45</ele>
        <time>2018-09-19T14:04:52Z</time>
      </trkpt>
      <trkpt lat="49.61627" lon="4.96025">
        <ele>168.37</ele>
        <time>2018-09-19T14:05:08Z</time>
      </trkpt>
      <trkpt lat="49.61644" lon="4.96031">
        <ele>169.33</ele>
        <time>2018-09-19T14:05:23Z</time>
      </trkpt>
      <trkpt lat="49.61664" lon="4.96034">
        <ele>169.81</ele>
        <time>2018-09-19T14:05:40Z</time>
      </trkpt>
      <trkpt lat="49.61685" lon="4.96037">
        <ele>173.66</ele>
        <time>2018-09-19T14:05:58Z</time>
      </trkpt>
      <trkpt lat="49.61706" lon="4.96045">
        <ele>174.14</ele>
        <time>2018-09-19T14:06:17Z</time>
      </trkpt>
      <trkpt lat="49.6172" lon="4.96048">
        <ele>173.66</ele>
        <time>2018-09-19T14:06:31Z</time>
      </trkpt>
      <trkpt lat="49.61739" lon="4.96057">
        <ele>174.62</ele>
        <time>2018-09-19T14:06:48Z</time>
      </trkpt>
      <trkpt lat="49.61757" lon="4.96069">
        <ele>174.62</ele>
        <time>2018-09-19T14:07:04Z</time>
      </trkpt>
      <trkpt lat="49.61779" lon="4.96073">
        <ele>175.1</ele>
        <time>2018-09-19T14:07:24Z</time>
      </trkpt>
      <trkpt lat="49.61804" lon="4.96078">
        <ele>175.1</ele>
        <time>2018-09-19T14:07:44Z</time>
      </trkpt>
      <trkpt lat="49.61827" lon="4.96086">
        <ele>174.14</ele>
        <time>2018-09-19T14:08:05Z</time>
      </trkpt>
      <trkpt lat="49.61844" lon="4.9609">
        <ele>174.62</ele>
        <time>2018-09-19T14:08:21Z</time>
      </trkpt>
      <trkpt lat="49.61866" lon="4.96099">
        <ele>176.06</ele>
        <time>2018-09-19T14:08:40Z</time>
      </trkpt>
      <trkpt lat="49.6189" lon="4.96103">
        <ele>175.58</ele>
        <time>2018-09-19T14:09:00Z</time>
      </trkpt>
      <trkpt lat="49.61911" lon="4.96106">
        <ele>173.17</ele>
        <time>2018-09-19T14:09:18Z</time>
      </trkpt>
      <trkpt lat="49.6191" lon="4.96109">
        <ele>173.66</ele>
        <time>2018-09-19T14:09:32Z</time>
      </trkpt>
      <trkpt lat="49.61909" lon="4.96109">
        <ele>173.66</ele>
        <time>2018-09-19T14:09:49Z</time>
      </trkpt>
      <trkpt lat="49.61909" lon="4.9611">
        <ele>174.14</ele>
        <time>2018-09-19T14:10:08Z</time>
      </trkpt>
      <trkpt lat="49.61921" lon="4.9611">
        <ele>173.17</ele>
        <time>2018-09-19T14:10:20Z</time>
      </trkpt>
      <trkpt lat="49.61943" lon="4.96113">
        <ele>174.14</ele>
        <time>2018-09-19T14:10:39Z</time>
      </trkpt>
      <trkpt lat="49.61945" lon="4.96114">
        <ele>174.62</ele>
        <time>2018-09-19T14:10:41Z</time>
      </trkpt>
      <trkpt lat="49.61967" lon="4.96121">
        <ele>174.14</ele>
        <time>2018-09-19T14:10:59Z</time>
      </trkpt>
      <trkpt lat="49.61983" lon="4.96126">
        <ele>177.02</ele>
        <time>2018-09-19T14:11:15Z</time>
      </trkpt>
      <trkpt lat="49.61997" lon="4.96125">
        <ele>177.02</ele>
        <time>2018-09-19T14:11:26Z</time>
      </trkpt>
      <trkpt lat="49.62006" lon="4.9613">
        <ele>180.38</ele>
        <time>2018-09-19T14:11:41Z</time>
      </trkpt>
      <trkpt lat="49.62006" lon="4.96132">
        <ele>180.87</ele>
        <time>2018-09-19T14:12:03Z</time>
      </trkpt>
      <trkpt lat="49.62018" lon="4.96135">
        <ele>178.46</ele>
        <time>2018-09-19T14:12:18Z</time>
      </trkpt>
      <trkpt lat="49.62035" lon="4.96136">
        <ele>177.5</ele>
        <time>2018-09-19T14:12:32Z</time>
      </trkpt>
      <trkpt lat="49.62055" lon="4.9614">
        <ele>177.02</ele>
        <time>2018-09-19T14:12:49Z</time>
      </trkpt>
      <trkpt lat="49.62077" lon="4.96144">
        <ele>177.02</ele>
        <time>2018-09-19T14:13:08Z</time>
      </trkpt>
      <trkpt lat="49.62096" lon="4.96149">
        <ele>175.58</ele>
        <time>2018-09-19T14:13:25Z</time>
      </trkpt>
      <trkpt lat="49.62115" lon="4.96154">
        <ele>174.62</ele>
        <time>2018-09-19T14:13:42Z</time>
      </trkpt>
      <trkpt lat="49.62134" lon="4.96157">
        <ele>173.66</ele>
        <time>2018-09-19T14:13:59Z</time>
      </trkpt>
      <trkpt lat="49.62136" lon="4.96158">
        <ele>173.66</ele>
        <time>2018-09-19T14:14:01Z</time>
      </trkpt>
      <trkpt lat="49.62161" lon="4.96164">
        <ele>173.66</ele>
        <time>2018-09-19T14:14:22Z</time>
      </trkpt>
      <trkpt lat="49.62167" lon="4.96166">
        <ele>172.21</ele>
        <time>2018-09-19T14:14:28Z</time>
      </trkpt>
      <trkpt lat="49.62174" lon="4.9617">
        <ele>171.73</ele>
        <time>2018-09-19T14:14:34Z</time>
      </trkpt>
      <trkpt lat="49.62194" lon="4.96176">
        <ele>174.62</ele>
        <time>2018-09-19T14:14:53Z</time>
      </trkpt>
      <trkpt lat="49.62215" lon="4.96181">
        <ele>174.62</ele>
        <time>2018-09-19T14:15:13Z</time>
      </trkpt>
      <trkpt lat="49.62226" lon="4.96181">
        <ele>175.1</ele>
        <time>2018-09-19T14:15:26Z</time>
      </trkpt>
      <trkpt lat="49.62228" lon="4.96182">
        <ele>174.62</ele>
        <time>2018-09-19T14:15:28Z</time>
      </trkpt>
      <trkpt lat="49.62248" lon="4.96191">
        <ele>174.14</ele>
        <time>2018-09-19T14:15:48Z</time>
      </trkpt>
      <trkpt lat="49.6227" lon="4.96197">
        <ele>175.58</ele>
        <time>2018-09-19T14:16:06Z</time>
      </trkpt>
      <trkpt lat="49.62292" lon="4.96199">
        <ele>175.58</ele>
        <time>2018-09-19T14:16:24Z</time>
      </trkpt>
      <trkpt lat="49.62313" lon="4.96203">
        <ele>174.14</ele>
        <time>2018-09-19T14:16:43Z</time>
      </trkpt>
      <trkpt lat="49.62334" lon="4.96207">
        <ele>174.62</ele>
        <time>2018-09-19T14:17:01Z</time>
      </trkpt>
      <trkpt lat="49.62354" lon="4.96212">
        <ele>173.66</ele>
        <time>2018-09-19T14:17:19Z</time>
      </trkpt>
      <trkpt lat="49.62372" lon="4.96215">
        <ele>172.69</ele>
        <time>2018-09-19T14:17:35Z</time>
      </trkpt>
      <trkpt lat="49.62384" lon="4.96221">
        <ele>172.21</ele>
        <time>2018-09-19T14:17:47Z</time>
      </trkpt>
      <trkpt lat="49.6239" lon="4.96225">
        <ele>172.21</ele>
        <time>2018-09-19T14:17:52Z</time>
      </trkpt>
      <trkpt lat="49.62397" lon="4.96225">
        <ele>171.25</ele>
        <time>2018-09-19T14:17:58Z</time>
      </trkpt>
      <trkpt lat="49.62416" lon="4.96235">
        <ele>169.81</ele>
        <time>2018-09-19T14:18:16Z</time>
      </trkpt>
      <trkpt lat="49.6243" lon="4.96241">
        <ele>169.81</ele>
        <time>2018-09-19T14:18:29Z</time>
      </trkpt>
      <trkpt lat="49.62447" lon="4.96262">
        <ele>173.17</ele>
        <time>2018-09-19T14:18:47Z</time>
      </trkpt>
      <trkpt lat="49.62467" lon="4.96281">
        <ele>175.1</ele>
        <time>2018-09-19T14:19:07Z</time>
      </trkpt>
      <trkpt lat="49.62481" lon="4.9629">
        <ele>173.17</ele>
        <time>2018-09-19T14:19:21Z</time>
      </trkpt>
      <trkpt lat="49.62501" lon="4.963">
        <ele>172.69</ele>
        <time>2018-09-19T14:19:40Z</time>
      </trkpt>
      <trkpt lat="49.62525" lon="4.96305">
        <ele>175.58</ele>
        <time>2018-09-19T14:20:00Z</time>
      </trkpt>
      <trkpt lat="49.62547" lon="4.9631">
        <ele>176.54</ele>
        <time>2018-09-19T14:20:18Z</time>
      </trkpt>
      <trkpt lat="49.62567" lon="4.96319">
        <ele>175.1</ele>
        <time>2018-09-19T14:20:36Z</time>
      </trkpt>
      <trkpt lat="49.62572" lon="4.96321">
        <ele>174.62</ele>
        <time>2018-09-19T14:20:41Z</time>
      </trkpt>
      <trkpt lat="49.62583" lon="4.96327">
        <ele>175.1</ele>
        <time>2018-09-19T14:20:51Z</time>
      </trkpt>
      <trkpt lat="49.62594" lon="4.96331">
        <ele>175.1</ele>
        <time>2018-09-19T14:21:01Z</time>
      </trkpt>
      <trkpt lat="49.62606" lon="4.96339">
        <ele>174.62</ele>
        <time>2018-09-19T14:21:12Z</time>
      </trkpt>
      <trkpt lat="49.62614" lon="4.96344">
        <ele>173.66</ele>
        <time>2018-09-19T14:21:21Z</time>
      </trkpt>
      <trkpt lat="49.62634" lon="4.96357">
        <ele>173.17</ele>
        <time>2018-09-19T14:21:41Z</time>
      </trkpt>
      <trkpt lat="49.62654" lon="4.96367">
        <ele>172.21</ele>
        <time>2018-09-19T14:21:59Z</time>
      </trkpt>
      <trkpt lat="49.6266" lon="4.96371">
        <ele>171.25</ele>
        <time>2018-09-19T14:22:06Z</time>
      </trkpt>
      <trkpt lat="49.62685" lon="4.96383">
        <ele>167.41</ele>
        <time>2018-09-19T14:22:29Z</time>
      </trkpt>
      <trkpt lat="49.62708" lon="4.96396">
        <ele>166.45</ele>
        <time>2018-09-19T14:22:50Z</time>
      </trkpt>
      <trkpt lat="49.62727" lon="4.96408">
        <ele>166.93</ele>
        <time>2018-09-19T14:23:08Z</time>
      </trkpt>
      <trkpt lat="49.62744" lon="4.96418">
        <ele>168.85</ele>
        <time>2018-09-19T14:23:25Z</time>
      </trkpt>
      <trkpt lat="49.62764" lon="4.96432">
        <ele>169.81</ele>
        <time>2018-09-19T14:23:44Z</time>
      </trkpt>
      <trkpt lat="49.62777" lon="4.96438">
        <ele>168.85</ele>
        <time>2018-09-19T14:23:56Z</time>
      </trkpt>
      <trkpt lat="49.62793" lon="4.96446">
        <ele>168.85</ele>
        <time>2018-09-19T14:24:12Z</time>
      </trkpt>
      <trkpt lat="49.62807" lon="4.96455">
        <ele>169.81</ele>
        <time>2018-09-19T14:24:27Z</time>
      </trkpt>
      <trkpt lat="49.62822" lon="4.96462">
        <ele>168.37</ele>
        <time>2018-09-19T14:24:43Z</time>
      </trkpt>
      <trkpt lat="49.62842" lon="4.96471">
        <ele>168.85</ele>
        <time>2018-09-19T14:24:58Z</time>
      </trkpt>
      <trkpt lat="49.62858" lon="4.9648">
        <ele>169.81</ele>
        <time>2018-09-19T14:25:12Z</time>
      </trkpt>
      <trkpt lat="49.62871" lon="4.96485">
        <ele>169.33</ele>
        <time>2018-09-19T14:25:25Z</time>
      </trkpt>
      <trkpt lat="49.62888" lon="4.96498">
        <ele>169.33</ele>
        <time>2018-09-19T14:25:42Z</time>
      </trkpt>
      <trkpt lat="49.62903" lon="4.9651">
        <ele>168.37</ele>
        <time>2018-09-19T14:25:57Z</time>
      </trkpt>
      <trkpt lat="49.62912" lon="4.96519">
        <ele>169.33</ele>
        <time>2018-09-19T14:26:09Z</time>
      </trkpt>
      <trkpt lat="49.62925" lon="4.96527">
        <ele>171.25</ele>
        <time>2018-09-19T14:26:24Z</time>
      </trkpt>
      <trkpt lat="49.62933" lon="4.96534">
        <ele>170.77</ele>
        <time>2018-09-19T14:26:33Z</time>
      </trkpt>
      <trkpt lat="49.62939" lon="4.96538">
        <ele>171.25</ele>
        <time>2018-09-19T14:26:38Z</time>
      </trkpt>
      <trkpt lat="49.62952" lon="4.96553">
        <ele>172.21</ele>
        <time>2018-09-19T14:26:53Z</time>
      </trkpt>
      <trkpt lat="49.62968" lon="4.96567">
        <ele>170.77</ele>
        <time>2018-09-19T14:27:10Z</time>
      </trkpt>
      <trkpt lat="49.62982" lon="4.96577">
        <ele>170.77</ele>
        <time>2018-09-19T14:27:26Z</time>
      </trkpt>
      <trkpt lat="49.62997" lon="4.9659">
        <ele>171.25</ele>
        <time>2018-09-19T14:27:43Z</time>
      </trkpt>
      <trkpt lat="49.63015" lon="4.96605">
        <ele>168.85</ele>
        <time>2018-09-19T14:28:01Z</time>
      </trkpt>
      <trkpt lat="49.63035" lon="4.9662">
        <ele>165.96</ele>
        <time>2018-09-19T14:28:21Z</time>
      </trkpt>
      <trkpt lat="49.63049" lon="4.96633">
        <ele>164.52</ele>
        <time>2018-09-19T14:28:35Z</time>
      </trkpt>
      <trkpt lat="49.63065" lon="4.96645">
        <ele>161.64</ele>
        <time>2018-09-19T14:28:51Z</time>
      </trkpt>
      <trkpt lat="49.63083" lon="4.9666">
        <ele>161.16</ele>
        <time>2018-09-19T14:29:08Z</time>
      </trkpt>
      <trkpt lat="49.63094" lon="4.96671">
        <ele>165.48</ele>
        <time>2018-09-19T14:29:26Z</time>
      </trkpt>
      <trkpt lat="49.6311" lon="4.96688">
        <ele>165.48</ele>
        <time>2018-09-19T14:29:42Z</time>
      </trkpt>
      <trkpt lat="49.63127" lon="4.96702">
        <ele>165.96</ele>
        <time>2018-09-19T14:29:59Z</time>
      </trkpt>
      <trkpt lat="49.63143" lon="4.96717">
        <ele>166.93</ele>
        <time>2018-09-19T14:30:16Z</time>
      </trkpt>
      <trkpt lat="49.63158" lon="4.96732">
        <ele>167.89</ele>
        <time>2018-09-19T14:30:33Z</time>
      </trkpt>
      <trkpt lat="49.63173" lon="4.96746">
        <ele>169.81</ele>
        <time>2018-09-19T14:30:49Z</time>
      </trkpt>
      <trkpt lat="49.63187" lon="4.96763">
        <ele>172.21</ele>
        <time>2018-09-19T14:31:06Z</time>
      </trkpt>
      <trkpt lat="49.63199" lon="4.96773">
        <ele>172.21</ele>
        <time>2018-09-19T14:31:19Z</time>
      </trkpt>
      <trkpt lat="49.63212" lon="4.96789">
        <ele>169.33</ele>
        <time>2018-09-19T14:31:35Z</time>
      </trkpt>
      <trkpt lat="49.63225" lon="4.96805">
        <ele>167.89</ele>
        <time>2018-09-19T14:31:50Z</time>
      </trkpt>
      <trkpt lat="49.63229" lon="4.96811">
        <ele>167.41</ele>
        <time>2018-09-19T14:31:54Z</time>
      </trkpt>
      <trkpt lat="49.63233" lon="4.96817">
        <ele>167.41</ele>
        <time>2018-09-19T14:31:59Z</time>
      </trkpt>
      <trkpt lat="49.63248" lon="4.96842">
        <ele>165.48</ele>
        <time>2018-09-19T14:32:15Z</time>
      </trkpt>
      <trkpt lat="49.63258" lon="4.96864">
        <ele>164.04</ele>
        <time>2018-09-19T14:32:30Z</time>
      </trkpt>
      <trkpt lat="49.63269" lon="4.96893">
        <ele>165.96</ele>
        <time>2018-09-19T14:32:49Z</time>
      </trkpt>
      <trkpt lat="49.63276" lon="4.96911">
        <ele>164.04</ele>
        <time>2018-09-19T14:33:03Z</time>
      </trkpt>
      <trkpt lat="49.6328" lon="4.96936">
        <ele>165</ele>
        <time>2018-09-19T14:33:16Z</time>
      </trkpt>
      <trkpt lat="49.63287" lon="4.9697">
        <ele>168.37</ele>
        <time>2018-09-19T14:33:33Z</time>
      </trkpt>
      <trkpt lat="49.63293" lon="4.97">
        <ele>169.33</ele>
        <time>2018-09-19T14:33:50Z</time>
      </trkpt>
      <trkpt lat="49.633" lon="4.97022">
        <ele>168.37</ele>
        <time>2018-09-19T14:34:04Z</time>
      </trkpt>
      <trkpt lat="49.63306" lon="4.9705">
        <ele>167.41</ele>
        <time>2018-09-19T14:34:21Z</time>
      </trkpt>
      <trkpt lat="49.63312" lon="4.97074">
        <ele>165.96</ele>
        <time>2018-09-19T14:34:36Z</time>
      </trkpt>
      <trkpt lat="49.63318" lon="4.97103">
        <ele>165</ele>
        <time>2018-09-19T14:34:51Z</time>
      </trkpt>
      <trkpt lat="49.63322" lon="4.97127">
        <ele>166.45</ele>
        <time>2018-09-19T14:35:06Z</time>
      </trkpt>
      <trkpt lat="49.63326" lon="4.97143">
        <ele>167.89</ele>
        <time>2018-09-19T14:35:15Z</time>
      </trkpt>
      <trkpt lat="49.6333" lon="4.97166">
        <ele>169.33</ele>
        <time>2018-09-19T14:35:29Z</time>
      </trkpt>
      <trkpt lat="49.63339" lon="4.97185">
        <ele>166.45</ele>
        <time>2018-09-19T14:35:43Z</time>
      </trkpt>
      <trkpt lat="49.63348" lon="4.97215">
        <ele>163.56</ele>
        <time>2018-09-19T14:36:00Z</time>
      </trkpt>
      <trkpt lat="49.63355" lon="4.97236">
        <ele>162.6</ele>
        <time>2018-09-19T14:36:12Z</time>
      </trkpt>
      <trkpt lat="49.63368" lon="4.97257">
        <ele>161.64</ele>
        <time>2018-09-19T14:36:29Z</time>
      </trkpt>
      <trkpt lat="49.63376" lon="4.9727">
        <ele>160.2</ele>
        <time>2018-09-19T14:36:39Z</time>
      </trkpt>
      <trkpt lat="49.63383" lon="4.97283">
        <ele>160.2</ele>
        <time>2018-09-19T14:36:49Z</time>
      </trkpt>
      <trkpt lat="49.63388" lon="4.97295">
        <ele>161.64</ele>
        <time>2018-09-19T14:36:57Z</time>
      </trkpt>
      <trkpt lat="49.634" lon="4.97316">
        <ele>161.16</ele>
        <time>2018-09-19T14:37:12Z</time>
      </trkpt>
      <trkpt lat="49.63406" lon="4.97329">
        <ele>160.68</ele>
        <time>2018-09-19T14:37:20Z</time>
      </trkpt>
      <trkpt lat="49.63417" lon="4.97355">
        <ele>160.2</ele>
        <time>2018-09-19T14:37:37Z</time>
      </trkpt>
      <trkpt lat="49.63422" lon="4.97362">
        <ele>160.68</ele>
        <time>2018-09-19T14:37:44Z</time>
      </trkpt>
      <trkpt lat="49.63434" lon="4.97379">
        <ele>159.72</ele>
        <time>2018-09-19T14:37:59Z</time>
      </trkpt>
      <trkpt lat="49.63439" lon="4.97385">
        <ele>159.24</ele>
        <time>2018-09-19T14:38:05Z</time>
      </trkpt>
      <trkpt lat="49.63442" lon="4.9739">
        <ele>158.75</ele>
        <time>2018-09-19T14:38:09Z</time>
      </trkpt>
      <trkpt lat="49.63453" lon="4.97414">
        <ele>158.75</ele>
        <time>2018-09-19T14:38:25Z</time>
      </trkpt>
      <trkpt lat="49.63466" lon="4.97438">
        <ele>159.72</ele>
        <time>2018-09-19T14:38:43Z</time>
      </trkpt>
      <trkpt lat="49.63472" lon="4.97451">
        <ele>160.2</ele>
        <time>2018-09-19T14:38:51Z</time>
      </trkpt>
      <trkpt lat="49.63479" lon="4.9746">
        <ele>160.68</ele>
        <time>2018-09-19T14:38:59Z</time>
      </trkpt>
      <trkpt lat="49.63492" lon="4.97481">
        <ele>161.16</ele>
        <time>2018-09-19T14:39:16Z</time>
      </trkpt>
      <trkpt lat="49.63505" lon="4.97504">
        <ele>162.6</ele>
        <time>2018-09-19T14:39:33Z</time>
      </trkpt>
      <trkpt lat="49.63518" lon="4.97526">
        <ele>163.08</ele>
        <time>2018-09-19T14:39:50Z</time>
      </trkpt>
      <trkpt lat="49.63519" lon="4.97527">
        <ele>163.08</ele>
        <time>2018-09-19T14:39:51Z</time>
      </trkpt>
      <trkpt lat="49.63529" lon="4.97545">
        <ele>163.56</ele>
        <time>2018-09-19T14:40:04Z</time>
      </trkpt>
      <trkpt lat="49.63542" lon="4.97565">
        <ele>163.56</ele>
        <time>2018-09-19T14:40:22Z</time>
      </trkpt>
      <trkpt lat="49.63555" lon="4.97587">
        <ele>162.6</ele>
        <time>2018-09-19T14:40:40Z</time>
      </trkpt>
      <trkpt lat="49.63565" lon="4.97602">
        <ele>162.6</ele>
        <time>2018-09-19T14:40:54Z</time>
      </trkpt>
      <trkpt lat="49.63576" lon="4.97625">
        <ele>162.6</ele>
        <time>2018-09-19T14:41:10Z</time>
      </trkpt>
      <trkpt lat="49.63589" lon="4.97642">
        <ele>161.16</ele>
        <time>2018-09-19T14:41:27Z</time>
      </trkpt>
      <trkpt lat="49.636" lon="4.97659">
        <ele>161.16</ele>
        <time>2018-09-19T14:41:44Z</time>
      </trkpt>
      <trkpt lat="49.63597" lon="4.97664">
        <ele>161.16</ele>
        <time>2018-09-19T14:41:49Z</time>
      </trkpt>
      <trkpt lat="49.6359" lon="4.97673">
        <ele>161.16</ele>
        <time>2018-09-19T14:41:57Z</time>
      </trkpt>
      <trkpt lat="49.63576" lon="4.97692">
        <ele>160.2</ele>
        <time>2018-09-19T14:42:16Z</time>
      </trkpt>
      <trkpt lat="49.63568" lon="4.97705">
        <ele>161.16</ele>
        <time>2018-09-19T14:42:27Z</time>
      </trkpt>
      <trkpt lat="49.63556" lon="4.97732">
        <ele>161.16</ele>
        <time>2018-09-19T14:42:47Z</time>
      </trkpt>
      <trkpt lat="49.63548" lon="4.97748">
        <ele>161.64</ele>
        <time>2018-09-19T14:42:59Z</time>
      </trkpt>
      <trkpt lat="49.63546" lon="4.97754">
        <ele>162.12</ele>
        <time>2018-09-19T14:43:03Z</time>
      </trkpt>
      <trkpt lat="49.6354" lon="4.97767">
        <ele>163.56</ele>
        <time>2018-09-19T14:43:20Z</time>
      </trkpt>
      <trkpt lat="49.6354" lon="4.97766">
        <ele>164.04</ele>
        <time>2018-09-19T14:43:35Z</time>
      </trkpt>
      <trkpt lat="49.6354" lon="4.97764">
        <ele>164.52</ele>
        <time>2018-09-19T14:43:54Z</time>
      </trkpt>
      <trkpt lat="49.6354" lon="4.97764">
        <ele>165</ele>
        <time>2018-09-19T14:44:15Z</time>
      </trkpt>
      <trkpt lat="49.63541" lon="4.97764">
        <ele>165</ele>
        <time>2018-09-19T14:44:32Z</time>
      </trkpt>
      <trkpt lat="49.63541" lon="4.97764">
        <ele>165.96</ele>
        <time>2018-09-19T14:44:52Z</time>
      </trkpt>
      <trkpt lat="49.63541" lon="4.97766">
        <ele>166.45</ele>
        <time>2018-09-19T14:45:13Z</time>
      </trkpt>
      <trkpt lat="49.63541" lon="4.97767">
        <ele>165.48</ele>
        <time>2018-09-19T14:45:35Z</time>
      </trkpt>
      <trkpt lat="49.63541" lon="4.97769">
        <ele>165</ele>
        <time>2018-09-19T14:45:50Z</time>
      </trkpt>
      <trkpt lat="49.63524" lon="4.97789">
        <ele>165.48</ele>
        <time>2018-09-19T14:46:08Z</time>
      </trkpt>
      <trkpt lat="49.63506" lon="4.97805">
        <ele>166.93</ele>
        <time>2018-09-19T14:46:26Z</time>
      </trkpt>
      <trkpt lat="49.63489" lon="4.97822">
        <ele>168.37</ele>
        <time>2018-09-19T14:46:45Z</time>
      </trkpt>
      <trkpt lat="49.63481" lon="4.9784">
        <ele>169.33</ele>
        <time>2018-09-19T14:46:58Z</time>
      </trkpt>
      <trkpt lat="49.63477" lon="4.97848">
        <ele>169.33</ele>
        <time>2018-09-19T14:47:04Z</time>
      </trkpt>
      <trkpt lat="49.63472" lon="4.97856">
        <ele>167.89</ele>
        <time>2018-09-19T14:47:11Z</time>
      </trkpt>
      <trkpt lat="49.63455" lon="4.97877">
        <ele>169.81</ele>
        <time>2018-09-19T14:47:30Z</time>
      </trkpt>
      <trkpt lat="49.63454" lon="4.9788">
        <ele>170.29</ele>
        <time>2018-09-19T14:47:32Z</time>
      </trkpt>
      <trkpt lat="49.6345" lon="4.97888">
        <ele>170.77</ele>
        <time>2018-09-19T14:47:39Z</time>
      </trkpt>
      <trkpt lat="49.63445" lon="4.97893">
        <ele>172.21</ele>
        <time>2018-09-19T14:47:44Z</time>
      </trkpt>
      <trkpt lat="49.63436" lon="4.979">
        <ele>173.66</ele>
        <time>2018-09-19T14:47:53Z</time>
      </trkpt>
      <trkpt lat="49.63424" lon="4.97903">
        <ele>175.1</ele>
        <time>2018-09-19T14:48:05Z</time>
      </trkpt>
      <trkpt lat="49.63407" lon="4.97914">
        <ele>176.54</ele>
        <time>2018-09-19T14:48:22Z</time>
      </trkpt>
      <trkpt lat="49.63391" lon="4.97928">
        <ele>177.02</ele>
        <time>2018-09-19T14:48:39Z</time>
      </trkpt>
      <trkpt lat="49.63384" lon="4.97938">
        <ele>177.98</ele>
        <time>2018-09-19T14:48:49Z</time>
      </trkpt>
      <trkpt lat="49.63388" lon="4.97951">
        <ele>177.02</ele>
        <time>2018-09-19T14:48:59Z</time>
      </trkpt>
      <trkpt lat="49.63398" lon="4.9797">
        <ele>174.14</ele>
        <time>2018-09-19T14:49:15Z</time>
      </trkpt>
      <trkpt lat="49.63403" lon="4.97981">
        <ele>174.14</ele>
        <time>2018-09-19T14:49:23Z</time>
      </trkpt>
      <trkpt lat="49.63407" lon="4.97988">
        <ele>172.69</ele>
        <time>2018-09-19T14:49:30Z</time>
      </trkpt>
      <trkpt lat="49.63419" lon="4.9801">
        <ele>172.21</ele>
        <time>2018-09-19T14:49:47Z</time>
      </trkpt>
      <trkpt lat="49.63422" lon="4.98014">
        <ele>172.21</ele>
        <time>2018-09-19T14:49:51Z</time>
      </trkpt>
      <trkpt lat="49.63431" lon="4.98027">
        <ele>172.21</ele>
        <time>2018-09-19T14:50:03Z</time>
      </trkpt>
      <trkpt lat="49.63441" lon="4.98037">
        <ele>172.69</ele>
        <time>2018-09-19T14:50:14Z</time>
      </trkpt>
      <trkpt lat="49.63453" lon="4.98046">
        <ele>171.73</ele>
        <time>2018-09-19T14:50:30Z</time>
      </trkpt>
      <trkpt lat="49.63454" lon="4.98044">
        <ele>172.69</ele>
        <time>2018-09-19T14:50:40Z</time>
      </trkpt>
      <trkpt lat="49.63454" lon="4.98044">
        <ele>172.69</ele>
        <time>2018-09-19T14:50:44Z</time>
      </trkpt>
      <trkpt lat="49.6346" lon="4.97998">
        <ele>257.29</ele>
        <time>2018-09-19T15:16:06Z</time>
      </trkpt>
      <trkpt lat="49.63475" lon="4.98">
        <ele>268.35</ele>
        <time>2018-09-19T15:16:30Z</time>
      </trkpt>
    </trkseg>
  </trk>
</gpx>